Quantcast

NMEA to GPX not working

classic Classic list List threaded Threaded
2 messages Options
Reply | Threaded
Open this post in threaded view
|  
Report Content as Inappropriate

NMEA to GPX not working

Chetan Thapliyal
Hi,

I have got the attached GPS log from my Openmoko phone today. While
converting the log format from NMEA to GPX using gpsbabel I am getting
an empty XML file. I used the following command for conversion.

$ gpsbabel -D 8 -t -w -i nmea -f 1910-N-20080227-GTA01-A3.log -o gpx -F -

The following is the output I am receiving.

GPSBabel Version: 1.3.4
options: module/option=value: nmea/snlen="6" (=default)
options: module/option=value: nmea/gprmc="1" (=default)
options: module/option=value: nmea/gpgga="1" (=default)
options: module/option=value: nmea/gpvtg="1" (=default)
options: module/option=value: nmea/gpgsa="1" (=default)
options: module/option=value: nmea/append_positioning="0" (=default)
cet_util: Converting from "US-ASCII" to "UTF-8", done.
options: module/option=value: gpx/snlen="32" (=default)
options: module/option=value: gpx/gpxver="1.0" (=default)
<?xml version="1.0" encoding="UTF-8"?>
<gpx
 version="1.0"
creator="GPSBabel - http://www.gpsbabel.org"
xmlns:xsi="http://www.w3.org/2001/XMLSchema-instance"
xmlns="http://www.topografix.com/GPX/1/0"
xsi:schemaLocation="http://www.topografix.com/GPX/1/0 
http://www.topografix.com/GPX/1/0/gpx.xsd">
<time>2008-02-27T19:15:14Z</time>
<trk>
<trkseg>
</trkseg>
</trk>
</gpx>


I tried to google a lot but couldn't find any satisfactory solution for
it. Any sort of help in this regard would be highly appreciable.

Regards,
Chetan

$PGLOR,RID,GLL,182,5,023*4D
$GPGGA,133951.80,,,,,00,00,5.0,,M,0.179099,M,0.0020199,*6B
$GPRMC,133951.80,V,,,,,,,270208,,,N*76
$GPGSV,3,1,09,28,253,256,,19,250,169,,20,70,264,,11,62,167,*7D
$GPGSV,3,2,09,17,40,287,,01,37,052,,23,36,192,,31,24,081,*7F
$GPGSV,3,3,09,14,09,039,*46
$GPGSA,A,1,,,,,,,,,,,,,11.2,5.0,10.0*36
$PGLOR,IGR,81.5,7,70294545,0,3*30
$GPGGA,133952.50,,,,,00,00,5.0,,M,0.179099,M,0.0020199,*65
$GPRMC,133952.50,V,,,,,,,270208,,,N*78
$GPGSV,3,1,09,28,253,256,,19,250,169,,20,70,264,,11,62,167,*7D
$GPGSV,3,2,09,17,40,287,,01,37,052,,23,36,192,,31,24,081,*7F
$GPGSV,3,3,09,14,09,039,*46
$GPGSA,A,1,,,,,,,,,,,,,11.2,5.0,10.0*36
$GPGGA,133953.51,,,,,00,00,5.0,,M,0.179099,M,0.0020199,*65
$GPRMC,133953.51,V,,,,,,,270208,,,N*78
$GPGSV,3,1,09,28,253,256,,19,250,169,,20,70,264,,11,62,167,*7D
$GPGSV,3,2,09,17,40,287,,01,37,052,,23,36,192,,31,24,081,*7F
$GPGSV,3,3,09,14,09,039,*46
$GPGSA,A,1,,,,,,,,,,,,,11.2,5.0,10.0*36
$GPGGA,133954.56,,,,,00,00,5.0,,M,0.179099,M,0.0020199,*65
$GPRMC,133954.56,V,,,,,,,270208,,,N*78
$GPGSV,3,1,09,28,253,256,,19,250,169,,20,70,264,,11,62,167,*7D
$GPGSV,3,2,09,17,40,287,,01,37,052,,23,36,192,,31,24,081,*7F
$GPGSV,3,3,09,14,09,039,*46
$GPGSA,A,1,,,,,,,,,,,,,11.2,5.0,10.0*36
$GPGGA,133955.58,,,,,00,00,5.0,,M,0.179099,M,0.0020199,*6A
$GPRMC,133955.58,V,,,,,,,270208,,,N*77
$GPGSV,3,1,09,28,253,256,,19,250,169,,20,70,264,,11,62,167,*7D
$GPGSV,3,2,09,17,40,287,,01,37,052,,23,36,192,,31,24,081,*7F
$GPGSV,3,3,09,14,09,039,*46
$GPGSA,A,1,,,,,,,,,,,,,11.2,5.0,10.0*36
$GPGGA,133956.51,,,,,00,00,5.0,,M,0.179099,M,0.0020199,*60
$GPRMC,133956.51,V,,,,,,,270208,,,N*7D
$GPGSV,3,1,09,28,253,256,,19,250,169,,20,70,264,,11,62,167,*7D
$GPGSV,3,2,09,17,40,287,,01,37,052,,23,36,192,,31,24,081,*7F
$GPGSV,3,3,09,14,09,039,*46
$GPGSA,A,1,,,,,,,,,,,,,11.2,5.0,10.0*36
$GPGGA,133957.59,,,,,00,00,5.0,,M,0.179099,M,0.0020199,*69
$GPRMC,133957.59,V,,,,,,,270208,,,N*74
$GPGSV,3,1,09,28,253,256,,19,250,169,,20,70,264,,11,62,167,*7D
$GPGSV,3,2,09,17,40,287,,01,37,052,,23,36,192,,31,24,081,*7F
$GPGSV,3,3,09,14,09,039,*46
$GPGSA,A,1,,,,,,,,,,,,,11.2,5.0,10.0*36
$GPGGA,133958.54,,,,,00,00,5.0,,M,0.179099,M,0.0020199,*6B
$GPRMC,133958.54,V,,,,,,,270208,,,N*76
$GPGSV,3,1,09,28,253,256,,19,250,169,,20,70,264,,11,62,167,*7D
$GPGSV,3,2,09,17,40,287,,01,37,052,,23,36,192,,31,24,081,*7F
$GPGSV,3,3,09,14,09,039,*46
$GPGSA,A,1,,,,,,,,,,,,,11.2,5.0,10.0*36
$GPGGA,133959.57,,,,,00,00,5.0,,M,0.179099,M,0.0020199,*69
$GPRMC,133959.57,V,,,,,,,270208,,,N*74
$GPGSV,3,1,09,28,253,256,,19,250,169,,20,70,264,,11,62,167,*7D
$GPGSV,3,2,09,17,40,287,,01,37,052,,23,36,192,,31,24,081,*7F
$GPGSV,3,3,09,14,09,039,*46
$GPGSA,A,1,,,,,,,,,,,,,11.2,5.0,10.0*36
$GPGGA,134000.55,,,,,00,00,5.0,,M,0.179099,M,0.0020199,*69
$GPRMC,134000.55,V,,,,,,,270208,,,N*74
$GPGSV,3,1,09,28,253,256,,19,250,169,,20,70,264,,11,62,167,*7D
$GPGSV,3,2,09,17,40,287,,01,37,052,,23,36,192,,31,24,081,*7F
$GPGSV,3,3,09,14,09,039,*46
$GPGSA,A,1,,,,,,,,,,,,,11.2,5.0,10.0*36
$GPGGA,134001.53,,,,,00,00,5.0,,M,0.179099,M,0.0020199,*6E
$GPRMC,134001.53,V,,,,,,,270208,,,N*73
$GPGSV,3,1,09,28,253,256,,19,250,169,,20,70,264,,11,62,167,*7D
$GPGSV,3,2,09,17,40,287,,01,37,052,,23,36,192,,31,24,081,*7F
$GPGSV,3,3,09,14,09,039,*46
$GPGSA,A,1,,,,,,,,,,,,,11.2,5.0,10.0*36
$GPGGA,134002.50,,,,,00,00,5.0,,M,0.179099,M,0.0020199,*6E
$GPRMC,134002.50,V,,,,,,,270208,,,N*73
$GPGSV,3,1,09,28,253,256,,19,250,169,,20,70,264,,11,62,167,*7D
$GPGSV,3,2,09,17,40,287,,01,37,052,,23,36,192,,31,24,081,*7F
$GPGSV,3,3,09,14,09,039,*46
$GPGSA,A,1,,,,,,,,,,,,,11.2,5.0,10.0*36
$GPGGA,134003.53,,,,,00,00,5.0,,M,0.179099,M,0.0020199,*6C
$GPRMC,134003.53,V,,,,,,,270208,,,N*71
$GPGSV,3,1,09,28,253,256,,19,250,169,,20,70,264,,11,62,167,*7D
$GPGSV,3,2,09,17,40,287,,01,37,052,,23,36,192,,31,24,081,*7F
$GPGSV,3,3,09,14,09,039,*46
$GPGSA,A,1,,,,,,,,,,,,,11.2,5.0,10.0*36
$GPGGA,134004.50,,,,,00,00,5.0,,M,0.179099,M,0.0020199,*68
$GPRMC,134004.50,V,,,,,,,270208,,,N*75
$GPGSV,3,1,09,28,253,256,,19,250,169,,20,70,264,,11,62,167,*7D
$GPGSV,3,2,09,17,40,287,,01,37,052,,23,36,192,,31,24,081,*7F
$GPGSV,3,3,09,14,09,039,*46
$GPGSA,A,1,,,,,,,,,,,,,11.2,5.0,10.0*36
$GPGGA,134005.51,,,,,00,00,5.0,,M,0.179099,M,0.0020199,*68
$GPRMC,134005.51,V,,,,,,,270208,,,N*75
$GPGSV,3,1,09,28,253,256,,19,250,169,,20,70,264,,11,62,167,*7D
$GPGSV,3,2,09,17,40,287,,01,37,052,,23,36,192,,31,24,081,*7F
$GPGSV,3,3,09,14,09,039,*46
$GPGSA,A,1,,,,,,,,,,,,,11.2,5.0,10.0*36
$GPGGA,134006.59,,,,,00,00,5.0,,M,0.179099,M,0.0020199,*63
$GPRMC,134006.59,V,,,,,,,270208,,,N*7E
$GPGSV,3,1,09,28,253,256,,19,250,169,,20,70,264,,11,62,167,*7D
$GPGSV,3,2,09,17,40,287,,01,37,052,,23,36,192,,31,24,081,*7F
$GPGSV,3,3,09,14,09,039,*46
$GPGSA,A,1,,,,,,,,,,,,,11.2,5.0,10.0*36
$GPGGA,134007.57,,,,,00,00,5.0,,M,0.179099,M,0.0020199,*6C
$GPRMC,134007.57,V,,,,,,,270208,,,N*71
$GPGSV,3,1,09,28,253,256,,19,250,169,,20,70,264,,11,62,167,*7D
$GPGSV,3,2,09,17,40,287,,01,37,052,,23,36,192,,31,24,081,*7F
$GPGSV,3,3,09,14,09,039,*46
$GPGSA,A,1,,,,,,,,,,,,,11.2,5.0,10.0*36
$GPGGA,134008.55,,,,,00,00,5.0,,M,0.179099,M,0.0020199,*61
$GPRMC,134008.55,V,,,,,,,270208,,,N*7C
$GPGSV,3,1,09,28,253,256,,19,250,169,,20,70,264,,11,62,167,*7D
$GPGSV,3,2,09,17,40,287,,01,37,052,,23,36,192,,31,24,081,*7F
$GPGSV,3,3,09,14,09,039,*46
$GPGSA,A,1,,,,,,,,,,,,,11.2,5.0,10.0*36
$GPGGA,134009.50,,,,,00,00,5.0,,M,0.179099,M,0.0020199,*65
$GPRMC,134009.50,V,,,,,,,270208,,,N*78
$GPGSV,3,1,09,28,253,256,,19,250,169,,20,70,264,,11,62,167,*7D
$GPGSV,3,2,09,17,40,287,,01,37,052,,23,36,192,,31,24,081,*7F
$GPGSV,3,3,09,14,09,039,*46
$GPGSA,A,1,,,,,,,,,,,,,11.2,5.0,10.0*36
$GPGGA,134010.56,,,,,00,00,5.0,,M,0.179099,M,0.0020199,*6B
$GPRMC,134010.56,V,,,,,,,270208,,,N*76
$GPGSV,3,1,09,28,253,256,,19,250,169,,20,70,264,,11,62,167,*7D
$GPGSV,3,2,09,17,40,287,,01,37,052,,23,36,192,,31,24,081,*7F
$GPGSV,3,3,09,14,09,039,*46
$GPGSA,A,1,,,,,,,,,,,,,11.2,5.0,10.0*36
$GPGGA,134011.52,,,,,00,00,5.0,,M,0.179099,M,0.0020199,*6E
$GPRMC,134011.52,V,,,,,,,270208,,,N*73
$GPGSV,3,1,09,28,253,256,,19,250,169,,20,70,264,,11,62,167,*7D
$GPGSV,3,2,09,17,40,287,,01,37,052,,23,36,192,,31,24,081,*7F
$GPGSV,3,3,09,14,09,039,*46
$GPGSA,A,1,,,,,,,,,,,,,11.2,5.0,10.0*36
$GPGGA,134012.53,,,,,00,00,5.0,,M,0.179099,M,0.0020199,*6C
$GPRMC,134012.53,V,,,,,,,270208,,,N*71
$GPGSV,3,1,09,28,253,256,,19,250,169,,20,70,264,,11,62,167,*7D
$GPGSV,3,2,09,17,40,287,,01,37,052,,23,36,192,,31,24,081,*7F
$GPGSV,3,3,09,14,09,039,*46
$GPGSA,A,1,,,,,,,,,,,,,11.2,5.0,10.0*36
$GPGGA,134013.51,,,,,00,00,5.0,,M,0.179099,M,0.0020199,*6F
$GPRMC,134013.51,V,,,,,,,270208,,,N*72
$GPGSV,3,1,09,28,253,256,,19,250,169,,20,70,264,,11,62,167,*7D
$GPGSV,3,2,09,17,40,287,,01,37,052,,23,36,192,,31,24,081,*7F
$GPGSV,3,3,09,14,09,039,*46
$GPGSA,A,1,,,,,,,,,,,,,11.2,5.0,10.0*36
$GPGGA,134014.59,,,,,00,00,5.0,,M,0.179099,M,0.0020199,*60
$GPRMC,134014.59,V,,,,,,,270208,,,N*7D
$GPGSV,3,1,09,28,253,256,,19,250,169,,20,70,264,,11,62,167,*7D
$GPGSV,3,2,09,17,40,287,,01,37,052,,23,36,192,,31,24,081,*7F
$GPGSV,3,3,09,14,09,039,*46
$GPGSA,A,1,,,,,,,,,,,,,11.2,5.0,10.0*36
$GPGGA,134015.57,,,,,00,00,5.0,,M,0.179099,M,0.0020199,*6F
$GPRMC,134015.57,V,,,,,,,270208,,,N*72
$GPGSV,3,1,09,28,253,256,,19,250,169,,20,70,264,,11,62,167,*7D
$GPGSV,3,2,09,17,40,287,,01,37,052,,23,36,192,,31,24,081,*7F
$GPGSV,3,3,09,14,09,039,*46
$GPGSA,A,1,,,,,,,,,,,,,11.2,5.0,10.0*36
$GPGGA,134016.50,,,,,00,00,5.0,,M,0.179099,M,0.0020199,*6B
$GPRMC,134016.50,V,,,,,,,270208,,,N*76
$GPGSV,3,1,09,28,253,256,,19,250,169,,20,70,264,,11,62,167,*7D
$GPGSV,3,2,09,17,40,287,,01,37,052,,23,36,192,,31,24,081,*7F
$GPGSV,3,3,09,14,09,039,*46
$GPGSA,A,1,,,,,,,,,,,,,11.2,5.0,10.0*36
$GPGGA,134017.58,,,,,00,00,5.0,,M,0.179099,M,0.0020199,*62
$GPRMC,134017.58,V,,,,,,,270208,,,N*7F
$GPGSV,3,1,09,28,253,256,,19,250,169,,20,70,264,,11,62,167,*7D
$GPGSV,3,2,09,17,40,287,,01,37,052,,23,36,192,,31,24,081,*7F
$GPGSV,3,3,09,14,09,039,*46
$GPGSA,A,1,,,,,,,,,,,,,11.2,5.0,10.0*36
$GPGGA,134018.55,,,,,00,00,5.0,,M,0.179099,M,0.0020199,*60
$GPRMC,134018.55,V,,,,,,,270208,,,N*7D
$GPGSV,3,1,09,28,253,256,,19,250,169,,20,70,264,,11,62,167,*7D
$GPGSV,3,2,09,17,40,287,,01,37,052,,23,36,192,,31,24,081,*7F
$GPGSV,3,3,09,14,09,039,*46
$GPGSA,A,1,,,,,,,,,,,,,11.2,5.0,10.0*36
$GPGGA,134019.54,,,,,00,00,5.0,,M,0.179099,M,0.0020199,*60
$GPRMC,134019.54,V,,,,,,,270208,,,N*7D
$GPGSV,3,1,09,28,253,256,,19,250,169,,20,70,264,,11,62,167,*7D
$GPGSV,3,2,09,17,40,287,,01,37,052,,23,36,192,,31,24,081,*7F
$GPGSV,3,3,09,14,09,039,*46
$GPGSA,A,1,,,,,,,,,,,,,11.2,5.0,10.0*36
$GPGGA,134020.52,,,,,00,00,5.0,,M,0.179099,M,0.0020199,*6C
$GPRMC,134020.52,V,,,,,,,270208,,,N*71
$GPGSV,3,1,09,28,253,256,,19,250,169,,20,70,264,,11,62,167,*7D
$GPGSV,3,2,09,17,40,287,,01,37,052,,23,36,192,,31,24,081,*7F
$GPGSV,3,3,09,14,09,039,*46
$GPGSA,A,1,,,,,,,,,,,,,11.2,5.0,10.0*36
$GPGGA,134021.50,,,,,00,00,5.0,,M,0.179099,M,0.0020199,*6F
$GPRMC,134021.50,V,,,,,,,270208,,,N*72
$GPGSV,3,1,09,28,253,256,,19,250,169,,20,70,264,,11,62,167,*7D
$GPGSV,3,2,09,17,40,287,,01,37,052,,23,36,192,,31,24,081,*7F
$GPGSV,3,3,09,14,09,039,*46
$GPGSA,A,1,,,,,,,,,,,,,11.2,5.0,10.0*36
$GPGGA,134022.60,,,,,00,00,5.0,,M,0.179099,M,0.0020199,*6F
$GPRMC,134022.60,V,,,,,,,270208,,,N*72
$GPGSV,3,1,09,28,253,256,,19,250,169,,20,70,264,,11,62,167,*7D
$GPGSV,3,2,09,17,40,287,,01,37,052,,23,36,192,,31,24,081,*7F
$GPGSV,3,3,09,14,09,039,*46
$GPGSA,A,1,,,,,,,,,,,,,11.2,5.0,10.0*36
$GPGGA,134023.52,,,,,00,00,5.0,,M,0.179099,M,0.0020199,*6F
$GPRMC,134023.52,V,,,,,,,270208,,,N*72
$GPGSV,3,1,09,28,253,256,,19,250,169,,20,70,264,,11,62,167,*7D
$GPGSV,3,2,09,17,40,287,,01,37,052,,23,36,192,,31,24,081,*7F
$GPGSV,3,3,09,14,09,039,*46
$GPGSA,A,1,,,,,,,,,,,,,11.2,5.0,10.0*36
$GPGGA,134024.60,,,,,00,00,5.0,,M,0.179099,M,0.0020199,*69
$GPRMC,134024.60,V,,,,,,,270208,,,N*74
$GPGSV,3,1,09,28,253,256,,19,250,169,,20,70,264,,11,62,167,*7D
$GPGSV,3,2,09,17,40,287,,01,37,052,,23,36,192,,31,24,081,*7F
$GPGSV,3,3,09,14,09,039,*46
$GPGSA,A,1,,,,,,,,,,,,,11.2,5.0,10.0*36
$GPGGA,134025.58,,,,,00,00,5.0,,M,0.179099,M,0.0020199,*63
$GPRMC,134025.58,V,,,,,,,270208,,,N*7E
$GPGSV,3,1,09,28,253,256,,19,250,169,,20,70,264,,11,62,167,*7D
$GPGSV,3,2,09,17,40,287,,01,37,052,,23,36,192,,31,24,081,*7F
$GPGSV,3,3,09,14,09,039,*46
$GPGSA,A,1,,,,,,,,,,,,,11.2,5.0,10.0*36
$GPGGA,134026.63,,,,,00,00,5.0,,M,0.179099,M,0.0020199,*68
$GPRMC,134026.63,V,,,,,,,270208,,,N*75
$GPGSV,3,1,09,28,253,256,,19,250,169,,20,70,264,,11,62,167,*7D
$GPGSV,3,2,09,17,40,287,,01,37,052,,23,36,192,,31,24,081,*7F
$GPGSV,3,3,09,14,09,039,*46
$GPGSA,A,1,,,,,,,,,,,,,11.2,5.0,10.0*36
$GPGGA,134027.50,,,,,00,00,5.0,,M,0.179099,M,0.0020199,*69
$GPRMC,134027.50,V,,,,,,,270208,,,N*74
$GPGSV,3,1,09,28,253,256,,19,250,169,,20,70,264,,11,62,167,*7D
$GPGSV,3,2,09,17,40,287,,01,37,052,,23,36,192,,31,24,081,*7F
$GPGSV,3,3,09,14,09,039,*46
$GPGSA,A,1,,,,,,,,,,,,,11.2,5.0,10.0*36
$GPGGA,134028.52,,,,,00,00,5.0,,M,0.179099,M,0.0020199,*64
$GPRMC,134028.52,V,,,,,,,270208,,,N*79
$GPGSV,3,1,09,28,253,256,,19,250,169,,20,70,264,,11,62,167,*7D
$GPGSV,3,2,09,17,40,287,,01,37,052,,23,36,192,,31,24,081,*7F
$GPGSV,3,3,09,14,09,039,*46
$GPGSA,A,1,,,,,,,,,,,,,11.2,5.0,10.0*36
$GPGGA,134029.56,,,,,00,00,5.0,,M,0.179099,M,0.0020199,*61
$GPRMC,134029.56,V,,,,,,,270208,,,N*7C
$GPGSV,3,1,09,28,253,256,,19,250,169,,20,70,264,,11,62,167,*7D
$GPGSV,3,2,09,17,40,287,,01,37,052,,23,36,192,,31,24,081,*7F
$GPGSV,3,3,09,14,09,039,*46
$GPGSA,A,1,,,,,,,,,,,,,11.2,5.0,10.0*36
$GPGGA,134030.54,,,,,00,00,5.0,,M,0.179099,M,0.0020199,*6B
$GPRMC,134030.54,V,,,,,,,270208,,,N*76
$GPGSV,3,1,09,28,253,256,,19,250,169,,20,70,264,,11,62,167,*7D
$GPGSV,3,2,09,17,40,287,,01,37,052,,23,36,192,,31,24,081,*7F
$GPGSV,3,3,09,14,09,039,*46
$GPGSA,A,1,,,,,,,,,,,,,11.2,5.0,10.0*36
$GPGGA,134031.52,,,,,00,00,5.0,,M,0.179099,M,0.0020199,*6C
$GPRMC,134031.52,V,,,,,,,270208,,,N*71
$GPGSV,3,1,09,28,253,256,,19,250,169,,20,70,264,,11,62,167,*7D
$GPGSV,3,2,09,17,40,287,,01,37,052,,23,36,192,,31,24,081,*7F
$GPGSV,3,3,09,14,09,039,*46
$GPGSA,A,1,,,,,,,,,,,,,11.2,5.0,10.0*36
$GPGGA,134032.54,,,,,00,00,5.0,,M,0.179099,M,0.0020199,*69
$GPRMC,134032.54,V,,,,,,,270208,,,N*74
$GPGSV,3,1,09,28,253,256,,19,250,169,,20,70,264,,11,62,167,*7D
$GPGSV,3,2,09,17,40,287,,01,37,052,,23,36,192,,31,24,081,*7F
$GPGSV,3,3,09,14,09,039,*46
$GPGSA,A,1,,,,,,,,,,,,,11.2,5.0,10.0*36
$GPGGA,134033.58,,,,,00,00,5.0,,M,0.179099,M,0.0020199,*64
$GPRMC,134033.58,V,,,,,,,270208,,,N*79
$GPGSV,3,1,09,28,253,256,,19,250,169,,20,70,264,,11,62,167,*7D
$GPGSV,3,2,09,17,40,287,,01,37,052,,23,36,192,,31,24,081,*7F
$GPGSV,3,3,09,14,09,039,*46
$GPGSA,A,1,,,,,,,,,,,,,11.2,5.0,10.0*36
$GPGGA,134034.60,,,,,00,00,5.0,,M,0.179099,M,0.0020199,*68
$GPRMC,134034.60,V,,,,,,,270208,,,N*75
$GPGSV,3,1,09,28,253,256,,19,250,169,,20,70,264,,11,62,167,*7D
$GPGSV,3,2,09,17,40,287,,01,37,052,,23,36,192,,31,24,081,*7F
$GPGSV,3,3,09,14,09,039,*46
$GPGSA,A,1,,,,,,,,,,,,,11.2,5.0,10.0*36
$GPGGA,134035.50,,,,,00,00,5.0,,M,0.179099,M,0.0020199,*6A
$GPRMC,134035.50,V,,,,,,,270208,,,N*77
$GPGSV,3,1,09,28,253,256,,19,250,169,,20,70,264,,11,62,167,*7D
$GPGSV,3,2,09,17,40,287,,01,37,052,,23,36,192,,31,24,081,*7F
$GPGSV,3,3,09,14,09,039,*46
$GPGSA,A,1,,,,,,,,,,,,,11.2,5.0,10.0*36
$GPGGA,134036.60,,,,,00,00,5.0,,M,0.179099,M,0.0020199,*6A
$GPRMC,134036.60,V,,,,,,,270208,,,N*77
$GPGSV,3,1,09,28,253,256,,19,250,169,,20,70,264,,11,62,167,*7D
$GPGSV,3,2,09,17,40,287,,01,37,052,,23,36,192,,31,24,081,*7F
$GPGSV,3,3,09,14,09,039,*46
$GPGSA,A,1,,,,,,,,,,,,,11.2,5.0,10.0*36
$GPGGA,134037.60,,,,,00,00,5.0,,M,0.179099,M,0.0020199,*6B
$GPRMC,134037.60,V,,,,,,,270208,,,N*76
$GPGSV,3,1,09,28,253,256,,19,250,169,,20,70,264,,11,62,167,*7D
$GPGSV,3,2,09,17,40,287,,01,37,052,,23,36,192,,31,24,081,*7F
$GPGSV,3,3,09,14,09,039,*46
$GPGSA,A,1,,,,,,,,,,,,,11.2,5.0,10.0*36
$GPGGA,134038.52,,,,,00,00,5.0,,M,0.179099,M,0.0020199,*65
$GPRMC,134038.52,V,,,,,,,270208,,,N*78
$GPGSV,3,1,09,28,253,256,,19,250,169,,20,70,264,,11,62,167,*7D
$GPGSV,3,2,09,17,40,287,,01,37,052,,23,36,192,,31,24,081,*7F
$GPGSV,3,3,09,14,09,039,*46
$GPGSA,A,1,,,,,,,,,,,,,11.2,5.0,10.0*36
$GPGGA,134039.54,,,,,00,00,5.0,,M,0.179099,M,0.0020199,*62
$GPRMC,134039.54,V,,,,,,,270208,,,N*7F
$GPGSV,3,1,09,28,253,256,,19,250,169,,20,70,264,,11,62,167,*7D
$GPGSV,3,2,09,17,40,287,,01,37,052,,23,36,192,,31,24,081,*7F
$GPGSV,3,3,09,14,09,039,*46
$GPGSA,A,1,,,,,,,,,,,,,11.2,5.0,10.0*36
$GPGGA,134040.54,,,,,00,00,5.0,,M,0.179099,M,0.0020199,*6C
$GPRMC,134040.54,V,,,,,,,270208,,,N*71
$GPGSV,3,1,09,28,253,256,,19,250,169,,20,70,264,,11,62,167,*7D
$GPGSV,3,2,09,17,40,287,,01,37,052,,23,36,192,,31,24,081,*7F
$GPGSV,3,3,09,14,09,039,*46
$GPGSA,A,1,,,,,,,,,,,,,11.2,5.0,10.0*36
$GPGGA,134041.53,,,,,00,00,5.0,,M,0.179099,M,0.0020199,*6A
$GPRMC,134041.53,V,,,,,,,270208,,,N*77
$GPGSV,3,1,09,28,253,256,,19,250,169,,20,70,264,,11,62,167,*7D
$GPGSV,3,2,09,17,40,287,,01,37,052,,23,36,192,,31,24,081,*7F
$GPGSV,3,3,09,14,09,039,*46
$GPGSA,A,1,,,,,,,,,,,,,11.2,5.0,10.0*36
$GPGGA,134042.56,,,,,00,00,5.0,,M,0.179099,M,0.0020199,*6C
$GPRMC,134042.56,V,,,,,,,270208,,,N*71
$GPGSV,3,1,09,28,253,256,,19,250,169,,20,70,264,,11,62,167,*7D
$GPGSV,3,2,09,17,40,287,,01,37,052,,23,36,192,,31,24,081,*7F
$GPGSV,3,3,09,14,09,039,*46
$GPGSA,A,1,,,,,,,,,,,,,11.2,5.0,10.0*36
$GPGGA,134043.54,,,,,00,00,5.0,,M,0.179099,M,0.0020199,*6F
$GPRMC,134043.54,V,,,,,,,270208,,,N*72
$GPGSV,3,1,09,28,253,256,,19,250,169,,20,70,264,,11,62,167,*7D
$GPGSV,3,2,09,17,40,287,,01,37,052,,23,36,192,,31,24,081,*7F
$GPGSV,3,3,09,14,09,039,*46
$GPGSA,A,1,,,,,,,,,,,,,11.2,5.0,10.0*36
$GPGGA,134044.62,,,,,00,00,5.0,,M,0.179099,M,0.0020199,*6D
$GPRMC,134044.62,V,,,,,,,270208,,,N*70
$GPGSV,3,1,09,28,253,256,,19,250,169,,20,70,264,,11,62,167,*7D
$GPGSV,3,2,09,17,40,287,,01,37,052,,23,36,192,,31,24,081,*7F
$GPGSV,3,3,09,14,09,039,*46
$GPGSA,A,1,,,,,,,,,,,,,11.2,5.0,10.0*36
$GPGGA,134045.56,,,,,00,00,5.0,,M,0.179099,M,0.0020199,*6B
$GPRMC,134045.56,V,,,,,,,270208,,,N*76
$GPGSV,3,1,09,28,253,256,,19,250,169,,20,70,264,,11,62,167,*7D
$GPGSV,3,2,09,17,40,287,,01,37,052,,23,36,192,,31,24,081,*7F
$GPGSV,3,3,09,14,09,039,*46
$GPGSA,A,1,,,,,,,,,,,,,11.2,5.0,10.0*36
$GPGGA,134046.57,,,,,00,00,5.0,,M,0.179099,M,0.0020199,*69
$GPRMC,134046.57,V,,,,,,,270208,,,N*74
$GPGSV,3,1,09,28,253,256,,19,250,169,,20,70,264,,11,62,167,*7D
$GPGSV,3,2,09,17,40,287,,01,37,052,,23,36,192,,31,24,081,*7F
$GPGSV,3,3,09,14,09,039,*46
$GPGSA,A,1,,,,,,,,,,,,,11.2,5.0,10.0*36
$GPGGA,134047.60,,,,,00,00,5.0,,M,0.179099,M,0.0020199,*6C
$GPRMC,134047.60,V,,,,,,,270208,,,N*71
$GPGSV,3,1,09,28,253,256,,19,250,169,,20,70,264,,11,62,167,*7D
$GPGSV,3,2,09,17,40,287,,01,37,052,,23,36,192,,31,24,081,*7F
$GPGSV,3,3,09,14,09,039,*46
$GPGSA,A,1,,,,,,,,,,,,,11.2,5.0,10.0*36
$GPGGA,134048.52,,,,,00,00,5.0,,M,0.179099,M,0.0020199,*62
$GPRMC,134048.52,V,,,,,,,270208,,,N*7F
$GPGSV,3,1,09,28,253,256,,19,250,169,,20,70,264,,11,62,167,*7D
$GPGSV,3,2,09,17,40,287,,01,37,052,,23,36,192,,31,24,081,*7F
$GPGSV,3,3,09,14,09,039,*46
$GPGSA,A,1,,,,,,,,,,,,,11.2,5.0,10.0*36
$GPGGA,134049.53,,,,,00,00,5.0,,M,0.179099,M,0.0020199,*62
$GPRMC,134049.53,V,,,,,,,270208,,,N*7F
$GPGSV,3,1,09,28,253,256,,19,250,169,,20,70,264,,11,62,167,*7D
$GPGSV,3,2,09,17,40,287,,01,37,052,,23,36,192,,31,24,081,*7F
$GPGSV,3,3,09,14,09,039,*46
$GPGSA,A,1,,,,,,,,,,,,,11.2,5.0,10.0*36
$GPGGA,134050.62,,,,,00,00,5.0,,M,0.179099,M,0.0020199,*68
$GPRMC,134050.62,V,,,,,,,270208,,,N*75
$GPGSV,3,1,09,28,253,256,,19,250,169,,20,70,264,,11,62,167,*7D
$GPGSV,3,2,09,17,40,287,,01,37,052,,23,36,192,,31,24,081,*7F
$GPGSV,3,3,09,14,09,039,*46
$GPGSA,A,1,,,,,,,,,,,,,11.2,5.0,10.0*36
$GPGGA,134051.57,,,,,00,00,5.0,,M,0.179099,M,0.0020199,*6F
$GPRMC,134051.57,V,,,,,,,270208,,,N*72
$GPGSV,3,1,09,28,253,256,,19,250,169,,20,70,264,,11,62,167,*7D
$GPGSV,3,2,09,17,40,287,,01,37,052,,23,36,192,,31,24,081,*7F
$GPGSV,3,3,09,14,09,039,*46
$GPGSA,A,1,,,,,,,,,,,,,11.2,5.0,10.0*36
$GPGGA,134052.59,,,,,00,00,5.0,,M,0.179099,M,0.0020199,*62
$GPRMC,134052.59,V,,,,,,,270208,,,N*7F
$GPGSV,3,1,09,28,253,256,,19,250,169,,20,70,264,,11,62,167,*7D
$GPGSV,3,2,09,17,40,287,,01,37,052,,23,36,192,,31,24,081,*7F
$GPGSV,3,3,09,14,09,039,*46
$GPGSA,A,1,,,,,,,,,,,,,11.2,5.0,10.0*36
$PGLOR,IGR,81.2,7,865,0,1*02
$GPGGA,134053.50,,,,,00,00,5.0,,M,0.179099,M,0.0020199,*6A
$GPRMC,134053.50,V,,,,,,,270208,,,N*77
$GPGSV,3,1,09,28,253,256,,19,250,169,,20,70,264,,11,62,167,*7D
$GPGSV,3,2,09,17,40,287,,01,37,052,,23,36,192,,31,24,081,*7F
$GPGSV,3,3,09,14,09,039,*46
$GPGSA,A,1,,,,,,,,,,,,,11.2,5.0,10.0*36
$GPGGA,134054.59,,,,,00,00,5.0,,M,0.179099,M,0.0020199,*64
$GPRMC,134054.59,V,,,,,,,270208,,,N*79
$GPGSV,3,1,09,28,253,256,,19,250,169,,20,70,264,,11,62,167,*7D
$GPGSV,3,2,09,17,40,287,,01,37,052,,23,36,192,,31,24,081,*7F
$GPGSV,3,3,09,14,09,039,*46
$GPGSA,A,1,,,,,,,,,,,,,11.2,5.0,10.0*36
$GPGGA,134055.51,,,,,00,00,5.0,,M,0.179099,M,0.0020199,*6D
$GPRMC,134055.51,V,,,,,,,270208,,,N*70
$GPGSV,3,1,09,28,253,256,,19,250,169,,20,70,264,,11,62,167,*7D
$GPGSV,3,2,09,17,40,287,,01,37,052,,23,36,192,,31,24,081,*7F
$GPGSV,3,3,09,14,09,039,*46
$GPGSA,A,1,,,,,,,,,,,,,11.2,5.0,10.0*36
$GPGGA,134056.59,,,,,00,00,5.0,,M,0.179099,M,0.0020199,*66
$GPRMC,134056.59,V,,,,,,,270208,,,N*7B
$GPGSV,3,1,09,28,253,256,,19,250,169,,20,70,264,,11,62,167,*7D
$GPGSV,3,2,09,17,40,287,,01,37,052,,23,36,192,,31,24,081,*7F
$GPGSV,3,3,09,14,09,039,*46
$GPGSA,A,1,,,,,,,,,,,,,11.2,5.0,10.0*36
$GPGGA,134057.53,,,,,00,00,5.0,,M,0.179099,M,0.0020199,*6D
$GPRMC,134057.53,V,,,,,,,270208,,,N*70
$GPGSV,3,1,09,28,253,256,,19,250,169,,20,70,264,,11,62,167,*7D
$GPGSV,3,2,09,17,40,287,,01,37,052,,23,36,192,,31,24,081,*7F
$GPGSV,3,3,09,14,09,039,*46
$GPGSA,A,1,,,,,,,,,,,,,11.2,5.0,10.0*36
$GPGGA,134058.52,,,,,00,00,5.0,,M,0.179099,M,0.0020199,*63
$GPRMC,134058.52,V,,,,,,,270208,,,N*7E
$GPGSV,3,1,09,28,253,256,,19,250,169,,20,70,264,,11,62,167,*7D
$GPGSV,3,2,09,17,40,287,,01,37,052,,23,36,192,,31,24,081,*7F
$GPGSV,3,3,09,14,09,039,*46
$GPGSA,A,1,,,,,,,,,,,,,11.2,5.0,10.0*36
$GPGGA,134059.52,,,,,00,00,5.0,,M,0.179099,M,0.0020199,*62
$GPRMC,134059.52,V,,,,,,,270208,,,N*7F
$GPGSV,3,1,09,28,253,256,,19,250,169,,20,70,264,,11,62,167,*7D
$GPGSV,3,2,09,17,40,287,,01,37,052,,23,36,192,,31,24,081,*7F
$GPGSV,3,3,09,14,09,039,*46
$GPGSA,A,1,,,,,,,,,,,,,11.2,5.0,10.0*36
$GPGGA,134100.57,,,,,00,00,5.0,,M,0.179099,M,0.0020199,*6A
$GPRMC,134100.57,V,,,,,,,270208,,,N*77
$GPGSV,3,1,09,28,253,256,,19,250,169,,20,70,264,,11,62,167,*7D
$GPGSV,3,2,09,17,40,287,,01,37,052,,23,36,192,,31,24,081,*7F
$GPGSV,3,3,09,14,09,039,*46
$GPGSA,A,1,,,,,,,,,,,,,11.2,5.0,10.0*36
$GPGGA,134101.55,,,,,00,00,5.0,,M,0.179099,M,0.0020199,*69
$GPRMC,134101.55,V,,,,,,,270208,,,N*74
$GPGSV,3,1,09,28,253,256,,19,250,169,,20,70,264,,11,62,167,*7D
$GPGSV,3,2,09,17,40,287,,01,37,052,,23,36,192,,31,24,081,*7F
$GPGSV,3,3,09,14,09,039,*46
$GPGSA,A,1,,,,,,,,,,,,,11.2,5.0,10.0*36
$GPGGA,134102.53,,,,,00,00,5.0,,M,0.179099,M,0.0020199,*6C
$GPRMC,134102.53,V,,,,,,,270208,,,N*71
$GPGSV,3,1,09,28,253,256,,19,250,169,,20,70,264,,11,62,167,*7D
$GPGSV,3,2,09,17,40,287,,01,37,052,,23,36,192,,31,24,081,*7F
$GPGSV,3,3,09,14,09,039,*46
$GPGSA,A,1,,,,,,,,,,,,,11.2,5.0,10.0*36
$GPGGA,134103.61,,,,,00,00,5.0,,M,0.179099,M,0.0020199,*6C
$GPRMC,134103.61,V,,,,,,,270208,,,N*71
$GPGSV,3,1,09,28,253,256,,19,250,169,,20,70,264,,11,62,167,*7D
$GPGSV,3,2,09,17,40,287,,01,37,052,,23,36,192,,31,24,081,*7F
$GPGSV,3,3,09,14,09,039,*46
$GPGSA,A,1,,,,,,,,,,,,,11.2,5.0,10.0*36
$GPGGA,134104.50,,,,,00,00,5.0,,M,0.179099,M,0.0020199,*69
$GPRMC,134104.50,V,,,,,,,270208,,,N*74
$GPGSV,3,1,09,28,253,256,,19,250,169,,20,70,264,,11,62,167,*7D
$GPGSV,3,2,09,17,40,287,,01,37,052,,23,36,192,,31,24,081,*7F
$GPGSV,3,3,09,14,09,039,*46
$GPGSA,A,1,,,,,,,,,,,,,11.2,5.0,10.0*36
$GPGGA,134105.57,,,,,00,00,5.0,,M,0.179099,M,0.0020199,*6F
$GPRMC,134105.57,V,,,,,,,270208,,,N*72
$GPGSV,3,1,09,28,253,256,,19,250,169,,20,70,264,,11,62,167,*7D
$GPGSV,3,2,09,17,40,287,,01,37,052,,23,36,192,,31,24,081,*7F
$GPGSV,3,3,09,14,09,039,*46
$GPGSA,A,1,,,,,,,,,,,,,11.2,5.0,10.0*36
$GPGGA,134106.51,,,,,00,00,5.0,,M,0.179099,M,0.0020199,*6A
$GPRMC,134106.51,V,,,,,,,270208,,,N*77
$GPGSV,3,1,09,28,253,256,,19,250,169,,20,70,264,,11,62,167,*7D
$GPGSV,3,2,09,17,40,287,,01,37,052,,23,36,192,,31,24,081,*7F
$GPGSV,3,3,09,14,09,039,*46
$GPGSA,A,1,,,,,,,,,,,,,11.2,5.0,10.0*36
$GPGGA,134107.59,,,,,00,00,5.0,,M,0.179099,M,0.0020199,*63
$GPRMC,134107.59,V,,,,,,,270208,,,N*7E
$GPGSV,3,1,09,28,253,256,,19,250,169,,20,70,264,,11,62,167,*7D
$GPGSV,3,2,09,17,40,287,,01,37,052,,23,36,192,,31,24,081,*7F
$GPGSV,3,3,09,14,09,039,*46
$GPGSA,A,1,,,,,,,,,,,,,11.2,5.0,10.0*36
$GPGGA,134108.57,,,,,00,00,5.0,,M,0.179099,M,0.0020199,*62
$GPRMC,134108.57,V,,,,,,,270208,,,N*7F
$GPGSV,3,1,09,28,253,256,,19,250,169,,20,70,264,,11,62,167,*7D
$GPGSV,3,2,09,17,40,287,,01,37,052,,23,36,192,,31,24,081,*7F
$GPGSV,3,3,09,14,09,039,*46
$GPGSA,A,1,,,,,,,,,,,,,11.2,5.0,10.0*36
$GPGGA,134109.65,,,,,00,00,5.0,,M,0.179099,M,0.0020199,*62
$GPRMC,134109.65,V,,,,,,,270208,,,N*7F
$GPGSV,3,1,09,28,253,256,,19,250,169,,20,70,264,,11,62,167,*7D
$GPGSV,3,2,09,17,40,287,,01,37,052,,23,36,192,,31,24,081,*7F
$GPGSV,3,3,09,14,09,039,*46
$GPGSA,A,1,,,,,,,,,,,,,11.2,5.0,10.0*36
$GPGGA,134110.52,,,,,00,00,5.0,,M,0.179099,M,0.0020199,*6E
$GPRMC,134110.52,V,,,,,,,270208,,,N*73
$GPGSV,3,1,09,28,253,256,,19,250,169,,20,70,264,,11,62,167,*7D
$GPGSV,3,2,09,17,40,287,,01,37,052,,23,36,192,,31,24,081,*7F
$GPGSV,3,3,09,14,09,039,*46
$GPGSA,A,1,,,,,,,,,,,,,11.2,5.0,10.0*36
$GPGGA,134111.53,,,,,00,00,5.0,,M,0.179099,M,0.0020199,*6E
$GPRMC,134111.53,V,,,,,,,270208,,,N*73
$GPGSV,3,1,09,28,253,256,,19,250,169,,20,70,264,,11,62,167,*7D
$GPGSV,3,2,09,17,40,287,,01,37,052,,23,36,192,,31,24,081,*7F
$GPGSV,3,3,09,14,09,039,*46
$GPGSA,A,1,,,,,,,,,,,,,11.2,5.0,10.0*36
$GPGGA,134112.59,,,,,00,00,5.0,,M,0.179099,M,0.0020199,*67
$GPRMC,134112.59,V,,,,,,,270208,,,N*7A
$GPGSV,3,1,09,28,253,256,,19,250,169,,20,70,264,,11,62,167,*7D
$GPGSV,3,2,09,17,40,287,,01,37,052,,23,36,192,,31,24,081,*7F
$GPGSV,3,3,09,14,09,039,*46
$GPGSA,A,1,,,,,,,,,,,,,11.2,5.0,10.0*36
$GPGGA,134113.53,,,,,00,00,5.0,,M,0.179099,M,0.0020199,*6C
$GPRMC,134113.53,V,,,,,,,270208,,,N*71
$GPGSV,3,1,09,28,253,256,,19,250,169,,20,70,264,,11,62,167,*7D
$GPGSV,3,2,09,17,40,287,,01,37,052,,23,36,192,,31,24,081,*7F
$GPGSV,3,3,09,14,09,039,*46
$GPGSA,A,1,,,,,,,,,,,,,11.2,5.0,10.0*36
$GPGGA,134114.61,,,,,00,00,5.0,,M,0.179099,M,0.0020199,*6A
$GPRMC,134114.61,V,,,,,,,270208,,,N*77
$GPGSV,3,1,09,28,253,256,,19,250,169,,20,70,264,,11,62,167,*7D
$GPGSV,3,2,09,17,40,287,,01,37,052,,23,36,192,,31,24,081,*7F
$GPGSV,3,3,09,14,09,039,*46
$GPGSA,A,1,,,,,,,,,,,,,11.2,5.0,10.0*36
$GPGGA,134115.59,,,,,00,00,5.0,,M,0.179099,M,0.0020199,*60
$GPRMC,134115.59,V,,,,,,,270208,,,N*7D
$GPGSV,3,1,09,28,253,256,,19,250,169,,20,70,264,,11,62,167,*7D
$GPGSV,3,2,09,17,40,287,,01,37,052,,23,36,192,,31,24,081,*7F
$GPGSV,3,3,09,14,09,039,*46
$GPGSA,A,1,,,,,,,,,,,,,11.2,5.0,10.0*36
$GPGGA,134116.57,,,,,00,00,5.0,,M,0.179099,M,0.0020199,*6D
$GPRMC,134116.57,V,,,,,,,270208,,,N*70
$GPGSV,3,1,09,28,253,256,,19,250,169,,20,70,264,,11,62,167,*7D
$GPGSV,3,2,09,17,40,287,,01,37,052,,23,36,192,,31,24,081,*7F
$GPGSV,3,3,09,14,09,039,*46
$GPGSA,A,1,,,,,,,,,,,,,11.2,5.0,10.0*36
$GPGGA,134117.65,,,,,00,00,5.0,,M,0.179099,M,0.0020199,*6D
$GPRMC,134117.65,V,,,,,,,270208,,,N*70
$GPGSV,3,1,09,28,253,256,,19,250,169,,20,70,264,,11,62,167,*7D
$GPGSV,3,2,09,17,40,287,,01,37,052,,23,36,192,,31,24,081,*7F
$GPGSV,3,3,09,14,09,039,*46
$GPGSA,A,1,,,,,,,,,,,,,11.2,5.0,10.0*36
$GPGGA,134118.53,,,,,00,00,5.0,,M,0.179099,M,0.0020199,*67
$GPRMC,134118.53,V,,,,,,,270208,,,N*7A
$GPGSV,3,1,09,28,253,256,,19,250,169,,20,70,264,,11,62,167,*7D
$GPGSV,3,2,09,17,40,287,,01,37,052,,23,36,192,,31,24,081,*7F
$GPGSV,3,3,09,14,09,039,*46
$GPGSA,A,1,,,,,,,,,,,,,11.2,5.0,10.0*36
$GPGGA,134119.61,,,,,00,00,5.0,,M,0.179099,M,0.0020199,*67
$GPRMC,134119.61,V,,,,,,,270208,,,N*7A
$GPGSV,3,1,09,28,253,256,,19,250,169,,20,70,264,,11,62,167,*7D
$GPGSV,3,2,09,17,40,287,,01,37,052,,23,36,192,,31,24,081,*7F
$GPGSV,3,3,09,14,09,039,*46
$GPGSA,A,1,,,,,,,,,,,,,11.2,5.0,10.0*36
$GPGGA,134120.55,,,,,00,00,5.0,,M,0.179099,M,0.0020199,*6A
$GPRMC,134120.55,V,,,,,,,270208,,,N*77
$GPGSV,3,1,09,28,253,256,,19,250,169,,20,70,264,,11,62,167,*7D
$GPGSV,3,2,09,17,40,287,,01,37,052,,23,36,192,,31,24,081,*7F
$GPGSV,3,3,09,14,09,039,*46
$GPGSA,A,1,,,,,,,,,,,,,11.2,5.0,10.0*36
$GPGGA,134121.63,,,,,00,00,5.0,,M,0.179099,M,0.0020199,*6E
$GPRMC,134121.63,V,,,,,,,270208,,,N*73
$GPGSV,3,1,09,28,253,256,,19,250,169,,20,70,264,,11,62,167,*7D
$GPGSV,3,2,09,17,40,287,,01,37,052,,23,36,192,,31,24,081,*7F
$GPGSV,3,3,09,14,09,039,*46
$GPGSA,A,1,,,,,,,,,,,,,11.2,5.0,10.0*36
$GPGGA,134122.51,,,,,00,00,5.0,,M,0.179099,M,0.0020199,*6C
$GPRMC,134122.51,V,,,,,,,270208,,,N*71
$GPGSV,3,1,09,28,253,256,,19,250,169,,20,70,264,,11,62,167,*7D
$GPGSV,3,2,09,17,40,287,,01,37,052,,23,36,192,,31,24,081,*7F
$GPGSV,3,3,09,14,09,039,*46
$GPGSA,A,1,,,,,,,,,,,,,11.2,5.0,10.0*36
$GPGGA,134123.59,,,,,00,00,5.0,,M,0.179099,M,0.0020199,*65
$GPRMC,134123.59,V,,,,,,,270208,,,N*78
$GPGSV,3,1,09,28,253,256,,19,250,169,,20,70,264,,11,62,167,*7D
$GPGSV,3,2,09,17,40,287,,01,37,052,,23,36,192,,31,24,081,*7F
$GPGSV,3,3,09,14,09,039,*46
$GPGSA,A,1,,,,,,,,,,,,,11.2,5.0,10.0*36
$GPGGA,134124.52,,,,,00,00,5.0,,M,0.179099,M,0.0020199,*69
$GPRMC,134124.52,V,,,,,,,270208,,,N*74
$GPGSV,3,1,09,28,253,256,,19,250,169,,20,70,264,,11,62,167,*7D
$GPGSV,3,2,09,17,40,287,,01,37,052,,23,36,192,,31,24,081,*7F
$GPGSV,3,3,09,14,09,039,*46
$GPGSA,A,1,,,,,,,,,,,,,11.2,5.0,10.0*36
$GPGGA,134125.55,,,,,00,00,5.0,,M,0.179099,M,0.0020199,*6F
$GPRMC,134125.55,V,,,,,,,270208,,,N*72
$GPGSV,3,1,09,28,253,256,,19,250,169,,20,70,264,,11,62,167,*7D
$GPGSV,3,2,09,17,40,287,,01,37,052,,23,36,192,,31,24,081,*7F
$GPGSV,3,3,09,14,09,039,*46
$GPGSA,A,1,,,,,,,,,,,,,11.2,5.0,10.0*36
$GPGGA,134126.53,,,,,00,00,5.0,,M,0.179099,M,0.0020199,*6A
$GPRMC,134126.53,V,,,,,,,270208,,,N*77
$GPGSV,3,1,09,28,253,256,,19,250,169,,20,70,264,,11,62,167,*7D
$GPGSV,3,2,09,17,40,287,,01,37,052,,23,36,192,,31,24,081,*7F
$GPGSV,3,3,09,14,09,039,*46
$GPGSA,A,1,,,,,,,,,,,,,11.2,5.0,10.0*36
$GPGGA,134127.57,,,,,00,00,5.0,,M,0.179099,M,0.0020199,*6F
$GPRMC,134127.57,V,,,,,,,270208,,,N*72
$GPGSV,3,1,09,28,253,256,,19,250,169,,20,70,264,,11,62,167,*7D
$GPGSV,3,2,09,17,40,287,,01,37,052,,23,36,192,,31,24,081,*7F
$GPGSV,3,3,09,14,09,039,*46
$GPGSA,A,1,,,,,,,,,,,,,11.2,5.0,10.0*36
$GPGGA,134128.55,,,,,00,00,5.0,,M,0.179099,M,0.0020199,*62
$GPRMC,134128.55,V,,,,,,,270208,,,N*7F
$GPGSV,3,1,09,28,253,256,,19,250,169,,20,70,264,,11,62,167,*7D
$GPGSV,3,2,09,17,40,287,,01,37,052,,23,36,192,,31,24,081,*7F
$GPGSV,3,3,09,14,09,039,*46
$GPGSA,A,1,,,,,,,,,,,,,11.2,5.0,10.0*36
$GPGGA,134129.53,,,,,00,00,5.0,,M,0.179099,M,0.0020199,*65
$GPRMC,134129.53,V,,,,,,,270208,,,N*78
$GPGSV,3,1,09,28,253,256,,19,250,169,,20,70,264,,11,62,167,*7D
$GPGSV,3,2,09,17,40,287,,01,37,052,,23,36,192,,31,24,081,*7F
$GPGSV,3,3,09,14,09,039,*46
$GPGSA,A,1,,,,,,,,,,,,,11.2,5.0,10.0*36
$GPGGA,134130.61,,,,,00,00,5.0,,M,0.179099,M,0.0020199,*6C
$GPRMC,134130.61,V,,,,,,,270208,,,N*71
$GPGSV,3,1,09,28,253,256,,19,250,169,,20,70,264,,11,62,167,*7D
$GPGSV,3,2,09,17,40,287,,01,37,052,,23,36,192,,31,24,081,*7F
$GPGSV,3,3,09,14,09,039,*46
$GPGSA,A,1,,,,,,,,,,,,,11.2,5.0,10.0*36
$GPGGA,134131.50,,,,,00,00,5.0,,M,0.179099,M,0.0020199,*6F
$GPRMC,134131.50,V,,,,,,,270208,,,N*72
$GPGSV,3,1,09,28,253,256,,19,250,169,,20,70,264,,11,62,167,*7D
$GPGSV,3,2,09,17,40,287,,01,37,052,,23,36,192,,31,24,081,*7F
$GPGSV,3,3,09,14,09,039,*46
$GPGSA,A,1,,,,,,,,,,,,,11.2,5.0,10.0*36
$GPGGA,134132.57,,,,,00,00,5.0,,M,0.179099,M,0.0020199,*6B
$GPRMC,134132.57,V,,,,,,,270208,,,N*76
$GPGSV,3,1,09,28,253,256,,19,250,169,,20,70,264,,11,62,167,*7D
$GPGSV,3,2,09,17,40,287,,01,37,052,,23,36,192,,31,24,081,*7F
$GPGSV,3,3,09,14,09,039,*46
$GPGSA,A,1,,,,,,,,,,,,,11.2,5.0,10.0*36
$GPGGA,134133.51,,,,,00,00,5.0,,M,0.179099,M,0.0020199,*6C
$GPRMC,134133.51,V,,,,,,,270208,,,N*71
$GPGSV,3,1,09,28,253,256,,19,250,169,,20,70,264,,11,62,167,*7D
$GPGSV,3,2,09,17,40,287,,01,37,052,,23,36,192,,31,24,081,*7F
$GPGSV,3,3,09,14,09,039,*46
$GPGSA,A,1,,,,,,,,,,,,,11.2,5.0,10.0*36
$GPGGA,134134.59,,,,,00,00,5.0,,M,0.179099,M,0.0020199,*63
$GPRMC,134134.59,V,,,,,,,270208,,,N*7E
$GPGSV,3,1,09,28,253,256,,19,250,169,,20,70,264,,11,62,167,*7D
$GPGSV,3,2,09,17,40,287,,01,37,052,,23,36,192,,31,24,081,*7F
$GPGSV,3,3,09,14,09,039,*46
$GPGSA,A,1,,,,,,,,,,,,,11.2,5.0,10.0*36
$GPGGA,134135.57,,,,,00,00,5.0,,M,0.179099,M,0.0020199,*6C
$GPRMC,134135.57,V,,,,,,,270208,,,N*71
$GPGSV,3,1,09,28,253,256,,19,250,169,,20,70,264,,11,62,167,*7D
$GPGSV,3,2,09,17,40,287,,01,37,052,,23,36,192,,31,24,081,*7F
$GPGSV,3,3,09,14,09,039,*46
$GPGSA,A,1,,,,,,,,,,,,,11.2,5.0,10.0*36
$GPGGA,134136.65,,,,,00,00,5.0,,M,0.179099,M,0.0020199,*6E
$GPRMC,134136.65,V,,,,,,,270208,,,N*73
$GPGSV,3,1,09,28,253,256,,19,250,169,,20,70,264,,11,62,167,*7D
$GPGSV,3,2,09,17,40,287,,01,37,052,,23,36,192,,31,24,081,*7F
$GPGSV,3,3,09,14,09,039,*46
$GPGSA,A,1,,,,,,,,,,,,,11.2,5.0,10.0*36
$GPGGA,134137.52,,,,,00,00,5.0,,M,0.179099,M,0.0020199,*6B
$GPRMC,134137.52,V,,,,,,,270208,,,N*76
$GPGSV,3,1,09,28,253,256,,19,250,169,,20,70,264,,11,62,167,*7D
$GPGSV,3,2,09,17,40,287,,01,37,052,,23,36,192,,31,24,081,*7F
$GPGSV,3,3,09,14,09,039,*46
$GPGSA,A,1,,,,,,,,,,,,,11.2,5.0,10.0*36
$GPGGA,134138.52,,,,,00,00,5.0,,M,0.179099,M,0.0020199,*64
$GPRMC,134138.52,V,,,,,,,270208,,,N*79
$GPGSV,3,1,09,28,253,256,,19,250,169,,20,70,264,,11,62,167,*7D
$GPGSV,3,2,09,17,40,287,,01,37,052,,23,36,192,,31,24,081,*7F
$GPGSV,3,3,09,14,09,039,*46
$GPGSA,A,1,,,,,,,,,,,,,11.2,5.0,10.0*36
$GPGGA,134139.59,,,,,00,00,5.0,,M,0.179099,M,0.0020199,*6E
$GPRMC,134139.59,V,,,,,,,270208,,,N*73
$GPGSV,3,1,09,28,253,256,,19,250,169,,20,70,264,,11,62,167,*7D
$GPGSV,3,2,09,17,40,287,,01,37,052,,23,36,192,,31,24,081,*7F
$GPGSV,3,3,09,14,09,039,*46
$GPGSA,A,1,,,,,,,,,,,,,11.2,5.0,10.0*36
$GPGGA,134140.53,,,,,00,00,5.0,,M,0.179099,M,0.0020199,*6A
$GPRMC,134140.53,V,,,,,,,270208,,,N*77
$GPGSV,3,1,09,28,253,256,,19,250,169,,20,70,264,,11,62,167,*7D
$GPGSV,3,2,09,17,40,287,,01,37,052,,23,36,192,,31,24,081,*7F
$GPGSV,3,3,09,14,09,039,*46
$GPGSA,A,1,,,,,,,,,,,,,11.2,5.0,10.0*36
$GPGGA,134141.61,,,,,00,00,5.0,,M,0.179099,M,0.0020199,*6A
$GPRMC,134141.61,V,,,,,,,270208,,,N*77
$GPGSV,3,1,09,28,253,256,,19,250,169,,20,70,264,,11,62,167,*7D
$GPGSV,3,2,09,17,40,287,,01,37,052,,23,36,192,,31,24,081,*7F
$GPGSV,3,3,09,14,09,039,*46
$GPGSA,A,1,,,,,,,,,,,,,11.2,5.0,10.0*36
$GPGGA,134142.59,,,,,00,00,5.0,,M,0.179099,M,0.0020199,*62
$GPRMC,134142.59,V,,,,,,,270208,,,N*7F
$GPGSV,3,1,09,28,253,256,,19,250,169,,20,70,264,,11,62,167,*7D
$GPGSV,3,2,09,17,40,287,,01,37,052,,23,36,192,,31,24,081,*7F
$GPGSV,3,3,09,14,09,039,*46
$GPGSA,A,1,,,,,,,,,,,,,11.2,5.0,10.0*36
$GPGGA,134143.57,,,,,00,00,5.0,,M,0.179099,M,0.0020199,*6D
$GPRMC,134143.57,V,,,,,,,270208,,,N*70
$GPGSV,3,1,09,28,253,256,,19,250,169,,20,70,264,,11,62,167,*7D
$GPGSV,3,2,09,17,40,287,,01,37,052,,23,36,192,,31,24,081,*7F
$GPGSV,3,3,09,14,09,039,*46
$GPGSA,A,1,,,,,,,,,,,,,11.2,5.0,10.0*36
$GPGGA,134144.65,,,,,00,00,5.0,,M,0.179099,M,0.0020199,*6B
$GPRMC,134144.65,V,,,,,,,270208,,,N*76
$GPGSV,3,1,09,28,253,256,,19,250,169,,20,70,264,,11,62,167,*7D
$GPGSV,3,2,09,17,40,287,,01,37,052,,23,36,192,,31,24,081,*7F
$GPGSV,3,3,09,14,09,039,*46
$GPGSA,A,1,,,,,,,,,,,,,11.2,5.0,10.0*36
$GPGGA,134145.53,,,,,00,00,5.0,,M,0.179099,M,0.0020199,*6F
$GPRMC,134145.53,V,,,,,,,270208,,,N*72
$GPGSV,3,1,09,28,253,256,,19,250,169,,20,70,264,,11,62,167,*7D
$GPGSV,3,2,09,17,40,287,,01,37,052,,23,36,192,,31,24,081,*7F
$GPGSV,3,3,09,14,09,039,*46
$GPGSA,A,1,,,,,,,,,,,,,11.2,5.0,10.0*36
$GPGGA,134146.60,,,,,00,00,5.0,,M,0.179099,M,0.0020199,*6C
$GPRMC,134146.60,V,,,,,,,270208,,,N*71
$GPGSV,3,1,09,28,253,256,,19,250,169,,20,70,264,,11,62,167,*7D
$GPGSV,3,2,09,17,40,287,,01,37,052,,23,36,192,,31,24,081,*7F
$GPGSV,3,3,09,14,09,039,*46
$GPGSA,A,1,,,,,,,,,,,,,11.2,5.0,10.0*36
$GPGGA,134147.55,,,,,00,00,5.0,,M,0.179099,M,0.0020199,*6B
$GPRMC,134147.55,V,,,,,,,270208,,,N*76
$GPGSV,3,1,09,28,253,256,,19,250,169,,20,70,264,,11,62,167,*7D
$GPGSV,3,2,09,17,40,287,,01,37,052,,23,36,192,,31,24,081,*7F
$GPGSV,3,3,09,14,09,039,*46
$GPGSA,A,1,,,,,,,,,,,,,11.2,5.0,10.0*36
$GPGGA,134148.63,,,,,00,00,5.0,,M,0.179099,M,0.0020199,*61
$GPRMC,134148.63,V,,,,,,,270208,,,N*7C
$GPGSV,3,1,09,28,253,256,,19,250,169,,20,70,264,,11,62,167,*7D
$GPGSV,3,2,09,17,40,287,,01,37,052,,23,36,192,,31,24,081,*7F
$GPGSV,3,3,09,14,09,039,*46
$GPGSA,A,1,,,,,,,,,,,,,11.2,5.0,10.0*36
$GPGGA,134149.51,,,,,00,00,5.0,,M,0.179099,M,0.0020199,*61
$GPRMC,134149.51,V,,,,,,,270208,,,N*7C
$GPGSV,3,1,09,28,253,256,,19,250,169,,20,70,264,,11,62,167,*7D
$GPGSV,3,2,09,17,40,287,,01,37,052,,23,36,192,,31,24,081,*7F
$GPGSV,3,3,09,14,09,039,*46
$GPGSA,A,1,,,,,,,,,,,,,11.2,5.0,10.0*36
$GPGGA,134150.61,,,,,00,00,5.0,,M,0.179099,M,0.0020199,*6A
$GPRMC,134150.61,V,,,,,,,270208,,,N*77
$GPGSV,3,1,09,28,253,256,,19,250,169,,20,70,264,,11,62,167,*7D
$GPGSV,3,2,09,17,40,287,,01,37,052,,23,36,192,,31,24,081,*7F
$GPGSV,3,3,09,14,09,039,*46
$GPGSA,A,1,,,,,,,,,,,,,11.2,5.0,10.0*36
$GPGGA,134151.58,,,,,00,00,5.0,,M,0.179099,M,0.0020199,*61
$GPRMC,134151.58,V,,,,,,,270208,,,N*7C
$GPGSV,3,1,09,28,253,256,,19,250,169,,20,70,264,,11,62,167,*7D
$GPGSV,3,2,09,17,40,287,,01,37,052,,23,36,192,,31,24,081,*7F
$GPGSV,3,3,09,14,09,039,*46
$GPGSA,A,1,,,,,,,,,,,,,11.2,5.0,10.0*36
$GPGGA,134152.58,,,,,00,00,5.0,,M,0.179099,M,0.0020199,*62
$GPRMC,134152.58,V,,,,,,,270208,,,N*7F
$GPGSV,3,1,09,28,253,256,,19,250,169,,20,70,264,,11,62,167,*7D
$GPGSV,3,2,09,17,40,287,,01,37,052,,23,36,192,,31,24,081,*7F
$GPGSV,3,3,09,14,09,039,*46
$GPGSA,A,1,,,,,,,,,,,,,11.2,5.0,10.0*36
$GPGGA,134153.61,,,,,00,00,5.0,,M,0.179099,M,0.0020199,*69
$GPRMC,134153.61,V,,,,,,,270208,,,N*74
$GPGSV,3,1,09,28,253,256,,19,250,169,,20,70,264,,11,62,167,*7D
$GPGSV,3,2,09,17,40,287,,01,37,052,,23,36,192,,31,24,081,*7F
$GPGSV,3,3,09,14,09,039,*46
$GPGSA,A,1,,,,,,,,,,,,,11.2,5.0,10.0*36
$PGLOR,IGR,81.2,7,71391,0,1*04
$GPGGA,134154.54,,,,,00,00,5.0,,M,0.179099,M,0.0020199,*68
$GPRMC,134154.54,V,,,,,,,270208,,,N*75
$GPGSV,3,1,09,28,253,256,,19,250,169,,20,70,264,,11,62,167,*7D
$GPGSV,3,2,09,17,40,287,,01,37,052,,23,36,192,,31,24,081,*7F
$GPGSV,3,3,09,14,09,039,*46
$GPGSA,A,1,,,,,,,,,,,,,11.2,5.0,10.0*36
$GPGGA,134155.54,,,,,00,00,5.0,,M,0.179099,M,0.0020199,*69
$GPRMC,134155.54,V,,,,,,,270208,,,N*74
$GPGSV,3,1,09,28,253,256,,19,250,169,,20,70,264,,11,62,167,*7D
$GPGSV,3,2,09,17,40,287,,01,37,052,,23,36,192,,31,24,081,*7F
$GPGSV,3,3,09,14,09,039,*46
$GPGSA,A,1,,,,,,,,,,,,,11.2,5.0,10.0*36
$GPGGA,134156.56,,,,,00,00,5.0,,M,0.179099,M,0.0020199,*68
$GPRMC,134156.56,V,,,,,,,270208,,,N*75
$GPGSV,3,1,09,28,253,256,,19,250,169,,20,70,264,,11,62,167,*7D
$GPGSV,3,2,09,17,40,287,,01,37,052,,23,36,192,,31,24,081,*7F
$GPGSV,3,3,09,14,09,039,*46
$GPGSA,A,1,,,,,,,,,,,,,11.2,5.0,10.0*36
$GPGGA,134157.62,,,,,00,00,5.0,,M,0.179099,M,0.0020199,*6E
$GPRMC,134157.62,V,,,,,,,270208,,,N*73
$GPGSV,3,1,09,28,253,256,,19,250,169,,20,70,264,,11,62,167,*7D
$GPGSV,3,2,09,17,40,287,,01,37,052,,23,36,192,,31,24,081,*7F
$GPGSV,3,3,09,14,09,039,*46
$GPGSA,A,1,,,,,,,,,,,,,11.2,5.0,10.0*36
$GPGGA,134158.56,,,,,00,00,5.0,,M,0.179099,M,0.0020199,*66
$GPRMC,134158.56,V,,,,,,,270208,,,N*7B
$GPGSV,3,1,09,28,253,256,,19,250,169,,20,70,264,,11,62,167,*7D
$GPGSV,3,2,09,17,40,287,,01,37,052,,23,36,192,,31,24,081,*7F
$GPGSV,3,3,09,14,09,039,*46
$GPGSA,A,1,,,,,,,,,,,,,11.2,5.0,10.0*36
$GPGGA,134159.58,,,,,00,00,5.0,,M,0.179099,M,0.0020199,*69
$GPRMC,134159.58,V,,,,,,,270208,,,N*74
$GPGSV,3,1,09,28,253,256,,19,250,169,,20,70,264,,11,62,167,*7D
$GPGSV,3,2,09,17,40,287,,01,37,052,,23,36,192,,31,24,081,*7F
$GPGSV,3,3,09,14,09,039,*46
$GPGSA,A,1,,,,,,,,,,,,,11.2,5.0,10.0*36
$GPGGA,134200.58,,,,,00,00,5.0,,M,0.179099,M,0.0020199,*66
$GPRMC,134200.58,V,,,,,,,270208,,,N*7B
$GPGSV,3,1,09,28,253,256,,19,250,169,,20,70,264,,11,62,167,*7D
$GPGSV,3,2,09,17,40,287,,01,37,052,,23,36,192,,31,24,081,*7F
$GPGSV,3,3,09,14,09,039,*46
$GPGSA,A,1,,,,,,,,,,,,,11.2,5.0,10.0*36
$GPGGA,134201.56,,,,,00,00,5.0,,M,0.179099,M,0.0020199,*69
$GPRMC,134201.56,V,,,,,,,270208,,,N*74
$GPGSV,3,1,09,28,253,256,,19,250,169,,20,70,264,,11,62,167,*7D
$GPGSV,3,2,09,17,40,287,,01,37,052,,23,36,192,,31,24,081,*7F
$GPGSV,3,3,09,14,09,039,*46
$GPGSA,A,1,,,,,,,,,,,,,11.2,5.0,10.0*36
$GPGGA,134202.63,,,,,00,00,5.0,,M,0.179099,M,0.0020199,*6C
$GPRMC,134202.63,V,,,,,,,270208,,,N*71
$GPGSV,3,1,09,28,253,256,,19,250,169,,20,70,264,,11,62,167,*7D
$GPGSV,3,2,09,17,40,287,,01,37,052,,23,36,192,,31,24,081,*7F
$GPGSV,3,3,09,14,09,039,*46
$GPGSA,A,1,,,,,,,,,,,,,11.2,5.0,10.0*36
$GPGGA,134203.50,,,,,00,00,5.0,,M,0.179099,M,0.0020199,*6D
$GPRMC,134203.50,V,,,,,,,270208,,,N*70
$GPGSV,3,1,09,28,253,256,,19,250,169,,20,70,264,,11,62,167,*7D
$GPGSV,3,2,09,17,40,287,,01,37,052,,23,36,192,,31,24,081,*7F
$GPGSV,3,3,09,14,09,039,*46
$GPGSA,A,1,,,,,,,,,,,,,11.2,5.0,10.0*36
$GPGGA,134204.50,,,,,00,00,5.0,,M,0.179099,M,0.0020199,*6A
$GPRMC,134204.50,V,,,,,,,270208,,,N*77
$GPGSV,3,1,09,28,253,256,,19,250,169,,20,70,264,,11,62,167,*7D
$GPGSV,3,2,09,17,40,287,,01,37,052,,23,36,192,,31,24,081,*7F
$GPGSV,3,3,09,14,09,039,*46
$GPGSA,A,1,,,,,,,,,,,,,11.2,5.0,10.0*36
$GPGGA,134205.60,,,,,00,00,5.0,,M,0.179099,M,0.0020199,*68
$GPRMC,134205.60,V,,,,,,,270208,,,N*75
$GPGSV,3,1,09,28,253,256,,19,250,169,,20,70,264,,11,62,167,*7D
$GPGSV,3,2,09,17,40,287,,01,37,052,,23,36,192,,31,24,081,*7F
$GPGSV,3,3,09,14,09,039,*46
$GPGSA,A,1,,,,,,,,,,,,,11.2,5.0,10.0*36
$GPGGA,134206.51,,,,,00,00,5.0,,M,0.179099,M,0.0020199,*69
$GPRMC,134206.51,V,,,,,,,270208,,,N*74
$GPGSV,3,1,09,28,253,256,,19,250,169,,20,70,264,,11,62,167,*7D
$GPGSV,3,2,09,17,40,287,,01,37,052,,23,36,192,,31,24,081,*7F
$GPGSV,3,3,09,14,09,039,*46
$GPGSA,A,1,,,,,,,,,,,,,11.2,5.0,10.0*36
$GPGGA,134207.59,,,,,00,00,5.0,,M,0.179099,M,0.0020199,*60
$GPRMC,134207.59,V,,,,,,,270208,,,N*7D
$GPGSV,3,1,09,28,253,256,,19,250,169,,20,70,264,,11,62,167,*7D
$GPGSV,3,2,09,17,40,287,,01,37,052,,23,36,192,,31,24,081,*7F
$GPGSV,3,3,09,14,09,039,*46
$GPGSA,A,1,,,,,,,,,,,,,11.2,5.0,10.0*36
$GPGGA,134208.57,,,,,00,00,5.0,,M,0.179099,M,0.0020199,*61
$GPRMC,134208.57,V,,,,,,,270208,,,N*7C
$GPGSV,3,1,09,28,253,256,,19,250,169,,20,70,264,,11,62,167,*7D
$GPGSV,3,2,09,17,40,287,,01,37,052,,23,36,192,,31,24,081,*7F
$GPGSV,3,3,09,14,09,039,*46
$GPGSA,A,1,,,,,,,,,,,,,11.2,5.0,10.0*36
$GPGGA,134209.54,,,,,00,00,5.0,,M,0.179099,M,0.0020199,*63
$GPRMC,134209.54,V,,,,,,,270208,,,N*7E
$GPGSV,3,1,09,28,253,256,,19,250,169,,20,70,264,,11,62,167,*7D
$GPGSV,3,2,09,17,40,287,,01,37,052,,23,36,192,,31,24,081,*7F
$GPGSV,3,3,09,14,09,039,*46
$GPGSA,A,1,,,,,,,,,,,,,11.2,5.0,10.0*36
$GPGGA,134210.54,,,,,00,00,5.0,,M,0.179099,M,0.0020199,*6B
$GPRMC,134210.54,V,,,,,,,270208,,,N*76
$GPGSV,3,1,09,28,253,256,,19,250,169,,20,70,264,,11,62,167,*7D
$GPGSV,3,2,09,17,40,287,,01,37,052,,23,36,192,,31,24,081,*7F
$GPGSV,3,3,09,14,09,039,*46
$GPGSA,A,1,,,,,,,,,,,,,11.2,5.0,10.0*36
$GPGGA,134211.56,,,,,00,00,5.0,,M,0.179099,M,0.0020199,*68
$GPRMC,134211.56,V,,,,,,,270208,,,N*75
$GPGSV,3,1,09,28,253,256,,19,250,169,,20,70,264,,11,62,167,*7D
$GPGSV,3,2,09,17,40,287,,01,37,052,,23,36,192,,31,24,081,*7F
$GPGSV,3,3,09,14,09,039,*46
$GPGSA,A,1,,,,,,,,,,,,,11.2,5.0,10.0*36
$GPGGA,134212.58,,,,,00,00,5.0,,M,0.179099,M,0.0020199,*65
$GPRMC,134212.58,V,,,,,,,270208,,,N*78
$GPGSV,3,1,09,28,253,256,,19,250,169,,20,70,264,,11,62,167,*7D
$GPGSV,3,2,09,17,40,287,,01,37,052,,23,36,192,,31,24,081,*7F
$GPGSV,3,3,09,14,09,039,*46
$GPGSA,A,1,,,,,,,,,,,,,11.2,5.0,10.0*36
$GPGGA,134213.60,,,,,00,00,5.0,,M,0.179099,M,0.0020199,*6F
$GPRMC,134213.60,V,,,,,,,270208,,,N*72
$GPGSV,3,1,09,28,253,256,,19,250,169,,20,70,264,,11,62,167,*7D
$GPGSV,3,2,09,17,40,287,,01,37,052,,23,36,192,,31,24,081,*7F
$GPGSV,3,3,09,14,09,039,*46
$GPGSA,A,1,,,,,,,,,,,,,11.2,5.0,10.0*36
$GPGGA,134214.60,,,,,00,00,5.0,,M,0.179099,M,0.0020199,*68
$GPRMC,134214.60,V,,,,,,,270208,,,N*75
$GPGSV,3,1,09,28,253,256,,19,250,169,,20,70,264,,11,62,167,*7D
$GPGSV,3,2,09,17,40,287,,01,37,052,,23,36,192,,31,24,081,*7F
$GPGSV,3,3,09,14,09,039,*46
$GPGSA,A,1,,,,,,,,,,,,,11.2,5.0,10.0*36
$GPGGA,134215.52,,,,,00,00,5.0,,M,0.179099,M,0.0020199,*68
$GPRMC,134215.52,V,,,,,,,270208,,,N*75
$GPGSV,3,1,09,28,253,256,,19,250,169,,20,70,264,,11,62,167,*7D
$GPGSV,3,2,09,17,40,287,,01,37,052,,23,36,192,,31,24,081,*7F
$GPGSV,3,3,09,14,09,039,*46
$GPGSA,A,1,,,,,,,,,,,,,11.2,5.0,10.0*36
$GPGGA,134216.60,,,,,00,00,5.0,,M,0.179099,M,0.0020199,*6A
$GPRMC,134216.60,V,,,,,,,270208,,,N*77
$GPGSV,3,1,09,28,253,256,,19,250,169,,20,70,264,,11,62,167,*7D
$GPGSV,3,2,09,17,40,287,,01,37,052,,23,36,192,,31,24,081,*7F
$GPGSV,3,3,09,14,09,039,*46
$GPGSA,A,1,,,,,,,,,,,,,11.2,5.0,10.0*36
$GPGGA,134217.52,,,,,00,00,5.0,,M,0.179099,M,0.0020199,*6A
$GPRMC,134217.52,V,,,,,,,270208,,,N*77
$GPGSV,3,1,09,28,253,256,,19,250,169,,20,70,264,,11,62,167,*7D
$GPGSV,3,2,09,17,40,287,,01,37,052,,23,36,192,,31,24,081,*7F
$GPGSV,3,3,09,14,09,039,*46
$GPGSA,A,1,,,,,,,,,,,,,11.2,5.0,10.0*36
$GPGGA,134218.52,,,,,00,00,5.0,,M,0.179099,M,0.0020199,*65
$GPRMC,134218.52,V,,,,,,,270208,,,N*78
$GPGSV,3,1,09,28,253,256,,19,250,169,,20,70,264,,11,62,167,*7D
$GPGSV,3,2,09,17,40,287,,01,37,052,,23,36,192,,31,24,081,*7F
$GPGSV,3,3,09,14,09,039,*46
$GPGSA,A,1,,,,,,,,,,,,,11.2,5.0,10.0*36
$GPGGA,134219.52,,,,,00,00,5.0,,M,0.179099,M,0.0020199,*64
$GPRMC,134219.52,V,,,,,,,270208,,,N*79
$GPGSV,3,1,09,28,253,256,,19,250,169,,20,70,264,,11,62,167,*7D
$GPGSV,3,2,09,17,40,287,,01,37,052,,23,36,192,,31,24,081,*7F
$GPGSV,3,3,09,14,09,039,*46
$GPGSA,A,1,,,,,,,,,,,,,11.2,5.0,10.0*36
$GPGGA,134220.59,,,,,00,00,5.0,,M,0.179099,M,0.0020199,*65
$GPRMC,134220.59,V,,,,,,,270208,,,N*78
$GPGSV,3,1,09,28,253,256,,19,250,169,,20,70,264,,11,62,167,*7D
$GPGSV,3,2,09,17,40,287,,01,37,052,,23,36,192,,31,24,081,*7F
$GPGSV,3,3,09,14,09,039,*46
$GPGSA,A,1,,,,,,,,,,,,,11.2,5.0,10.0*36
$GPGGA,134221.57,,,,,00,00,5.0,,M,0.179099,M,0.0020199,*6A
$GPRMC,134221.57,V,,,,,,,270208,,,N*77
$GPGSV,3,1,09,28,253,256,,19,250,169,,20,70,264,,11,62,167,*7D
$GPGSV,3,2,09,17,40,287,,01,37,052,,23,36,192,,31,24,081,*7F
$GPGSV,3,3,09,14,09,039,*46
$GPGSA,A,1,,,,,,,,,,,,,11.2,5.0,10.0*36
$GPGGA,134222.54,,,,,00,00,5.0,,M,0.179099,M,0.0020199,*6A
$GPRMC,134222.54,V,,,,,,,270208,,,N*77
$GPGSV,3,1,09,28,253,256,,19,250,169,,20,70,264,,11,62,167,*7D
$GPGSV,3,2,09,17,40,287,,01,37,052,,23,36,192,,31,24,081,*7F
$GPGSV,3,3,09,14,09,039,*46
$GPGSA,A,1,,,,,,,,,,,,,11.2,5.0,10.0*36
$GPGGA,134223.56,,,,,00,00,5.0,,M,0.179099,M,0.0020199,*69
$GPRMC,134223.56,V,,,,,,,270208,,,N*74
$GPGSV,3,1,09,28,253,256,,19,250,169,,20,70,264,,11,62,167,*7D
$GPGSV,3,2,09,17,40,287,,01,37,052,,23,36,192,,31,24,081,*7F
$GPGSV,3,3,09,14,09,039,*46
$GPGSA,A,1,,,,,,,,,,,,,11.2,5.0,10.0*36
$GPGGA,134224.56,,,,,00,00,5.0,,M,0.179099,M,0.0020199,*6E
$GPRMC,134224.56,V,,,,,,,270208,,,N*73
$GPGSV,3,1,09,28,253,256,,19,250,169,,20,70,264,,11,62,167,*7D
$GPGSV,3,2,09,17,40,287,,01,37,052,,23,36,192,,31,24,081,*7F
$GPGSV,3,3,09,14,09,039,*46
$GPGSA,A,1,,,,,,,,,,,,,11.2,5.0,10.0*36
$GPGGA,134225.56,,,,,00,00,5.0,,M,0.179099,M,0.0020199,*6F
$GPRMC,134225.56,V,,,,,,,270208,,,N*72
$GPGSV,3,1,09,28,253,256,,19,250,169,,20,70,264,,11,62,167,*7D
$GPGSV,3,2,09,17,40,287,,01,37,052,,23,36,192,,31,24,081,*7F
$GPGSV,3,3,09,14,09,039,*46
$GPGSA,A,1,,,,,,,,,,,,,11.2,5.0,10.0*36
$GPGGA,134226.54,,,,,00,00,5.0,,M,0.179099,M,0.0020199,*6E
$GPRMC,134226.54,V,,,,,,,270208,,,N*73
$GPGSV,3,1,09,28,253,256,,19,250,169,,20,70,264,,11,62,167,*7D
$GPGSV,3,2,09,17,40,287,,01,37,052,,23,36,192,,31,24,081,*7F
$GPGSV,3,3,09,14,09,039,*46
$GPGSA,A,1,,,,,,,,,,,,,11.2,5.0,10.0*36
$GPGGA,134227.53,,,,,00,00,5.0,,M,0.179099,M,0.0020199,*68
$GPRMC,134227.53,V,,,,,,,270208,,,N*75
$GPGSV,3,1,09,28,253,256,,19,250,169,,20,70,264,,11,62,167,*7D
$GPGSV,3,2,09,17,40,287,,01,37,052,,23,36,192,,31,24,081,*7F
$GPGSV,3,3,09,14,09,039,*46
$GPGSA,A,1,,,,,,,,,,,,,11.2,5.0,10.0*36
$GPGGA,134228.61,,,,,00,00,5.0,,M,0.179099,M,0.0020199,*66
$GPRMC,134228.61,V,,,,,,,270208,,,N*7B
$GPGSV,3,1,09,28,253,256,,19,250,169,,20,70,264,,11,62,167,*7D
$GPGSV,3,2,09,17,40,287,,01,37,052,,23,36,192,,31,24,081,*7F
$GPGSV,3,3,09,14,09,039,*46
$GPGSA,A,1,,,,,,,,,,,,,11.2,5.0,10.0*36
$GPGGA,134229.54,,,,,00,00,5.0,,M,0.179099,M,0.0020199,*61
$GPRMC,134229.54,V,,,,,,,270208,,,N*7C
$GPGSV,3,1,09,28,253,256,,19,250,169,,20,70,264,,11,62,167,*7D
$GPGSV,3,2,09,17,40,287,,01,37,052,,23,36,192,,31,24,081,*7F
$GPGSV,3,3,09,14,09,039,*46
$GPGSA,A,1,,,,,,,,,,,,,11.2,5.0,10.0*36
$GPGGA,134230.55,,,,,00,00,5.0,,M,0.179099,M,0.0020199,*68
$GPRMC,134230.55,V,,,,,,,270208,,,N*75
$GPGSV,3,1,09,28,253,256,,19,250,169,,20,70,264,,11,62,167,*7D
$GPGSV,3,2,09,17,40,287,,01,37,052,,23,36,192,,31,24,081,*7F
$GPGSV,3,3,09,14,09,039,*46
$GPGSA,A,1,,,,,,,,,,,,,11.2,5.0,10.0*36
$GPGGA,134231.60,,,,,00,00,5.0,,M,0.179099,M,0.0020199,*6F
$GPRMC,134231.60,V,,,,,,,270208,,,N*72
$GPGSV,3,1,09,28,253,256,,19,250,169,,20,70,264,,11,62,167,*7D
$GPGSV,3,2,09,17,40,287,,01,37,052,,23,36,192,,31,24,081,*7F
$GPGSV,3,3,09,14,09,039,*46
$GPGSA,A,1,,,,,,,,,,,,,11.2,5.0,10.0*36
$GPGGA,134232.59,,,,,00,00,5.0,,M,0.179099,M,0.0020199,*66
$GPRMC,134232.59,V,,,,,,,270208,,,N*7B
$GPGSV,3,1,09,28,253,256,,19,250,169,,20,70,264,,11,62,167,*7D
$GPGSV,3,2,09,17,40,287,,01,37,052,,23,36,192,,31,24,081,*7F
$GPGSV,3,3,09,14,09,039,*46
$GPGSA,A,1,,,,,,,,,,,,,11.2,5.0,10.0*36
$GPGGA,134233.67,,,,,00,00,5.0,,M,0.179099,M,0.0020199,*6A
$GPRMC,134233.67,V,,,,,,,270208,,,N*77
$GPGSV,3,1,09,28,253,256,,19,250,169,,20,70,264,,11,62,167,*7D
$GPGSV,3,2,09,17,40,287,,01,37,052,,23,36,192,,31,24,081,*7F
$GPGSV,3,3,09,14,09,039,*46
$GPGSA,A,1,,,,,,,,,,,,,11.2,5.0,10.0*36
$GPGGA,134234.55,,,,,00,00,5.0,,M,0.179099,M,0.0020199,*6C
$GPRMC,134234.55,V,,,,,,,270208,,,N*71
$GPGSV,3,1,09,28,253,256,,19,250,169,,20,70,264,,11,62,167,*7D
$GPGSV,3,2,09,17,40,287,,01,37,052,,23,36,192,,31,24,081,*7F
$GPGSV,3,3,09,14,09,039,*46
$GPGSA,A,1,,,,,,,,,,,,,11.2,5.0,10.0*36
$GPGGA,134235.63,,,,,00,00,5.0,,M,0.179099,M,0.0020199,*68
$GPRMC,134235.63,V,,,,,,,270208,,,N*75
$GPGSV,3,1,09,28,253,256,,19,250,169,,20,70,264,,11,62,167,*7D
$GPGSV,3,2,09,17,40,287,,01,37,052,,23,36,192,,31,24,081,*7F
$GPGSV,3,3,09,14,09,039,*46
$GPGSA,A,1,,,,,,,,,,,,,11.2,5.0,10.0*36
$GPGGA,134236.56,,,,,00,00,5.0,,M,0.179099,M,0.0020199,*6D
$GPRMC,134236.56,V,,,,,,,270208,,,N*70
$GPGSV,3,1,09,28,253,256,,19,250,169,,20,70,264,,11,62,167,*7D
$GPGSV,3,2,09,17,40,287,,01,37,052,,23,36,192,,31,24,081,*7F
$GPGSV,3,3,09,14,09,039,*46
$GPGSA,A,1,,,,,,,,,,,,,11.2,5.0,10.0*36
$GPGGA,134237.57,,,,,00,00,5.0,,M,0.179099,M,0.0020199,*6D
$GPRMC,134237.57,V,,,,,,,270208,,,N*70
$GPGSV,3,1,09,28,253,256,,19,250,169,,20,70,264,,11,62,167,*7D
$GPGSV,3,2,09,17,40,287,,01,37,052,,23,36,192,,31,24,081,*7F
$GPGSV,3,3,09,14,09,039,*46
$GPGSA,A,1,,,,,,,,,,,,,11.2,5.0,10.0*36
$GPGGA,134238.62,,,,,00,00,5.0,,M,0.179099,M,0.0020199,*64
$GPRMC,134238.62,V,,,,,,,270208,,,N*79
$GPGSV,3,1,09,28,253,256,,19,250,169,,20,70,264,,11,62,167,*7D
$GPGSV,3,2,09,17,40,287,,01,37,052,,23,36,192,,31,24,081,*7F
$GPGSV,3,3,09,14,09,039,*46
$GPGSA,A,1,,,,,,,,,,,,,11.2,5.0,10.0*36
$GPGGA,134239.51,,,,,00,00,5.0,,M,0.179099,M,0.0020199,*65
$GPRMC,134239.51,V,,,,,,,270208,,,N*78
$GPGSV,3,1,09,28,253,256,,19,250,169,,20,70,264,,11,62,167,*7D
$GPGSV,3,2,09,17,40,287,,01,37,052,,23,36,192,,31,24,081,*7F
$GPGSV,3,3,09,14,09,039,*46
$GPGSA,A,1,,,,,,,,,,,,,11.2,5.0,10.0*36
$GPGGA,134240.59,,,,,00,00,5.0,,M,0.179099,M,0.0020199,*63
$GPRMC,134240.59,V,,,,,,,270208,,,N*7E
$GPGSV,3,1,09,28,253,256,,19,250,169,,20,70,264,,11,62,167,*7D
$GPGSV,3,2,09,17,40,287,,01,37,052,,23,36,192,,31,24,081,*7F
$GPGSV,3,3,09,14,09,039,*46
$GPGSA,A,1,,,,,,,,,,,,,11.2,5.0,10.0*36
$GPGGA,134241.57,,,,,00,00,5.0,,M,0.179099,M,0.0020199,*6C
$GPRMC,134241.57,V,,,,,,,270208,,,N*71
$GPGSV,3,1,09,28,253,256,,19,250,169,,20,70,264,,11,62,167,*7D
$GPGSV,3,2,09,17,40,287,,01,37,052,,23,36,192,,31,24,081,*7F
$GPGSV,3,3,09,14,09,039,*46
$GPGSA,A,1,,,,,,,,,,,,,11.2,5.0,10.0*36
$GPGGA,134242.52,,,,,00,00,5.0,,M,0.179099,M,0.0020199,*6A
$GPRMC,134242.52,V,,,,,,,270208,,,N*77
$GPGSV,3,1,09,28,253,256,,19,250,169,,20,70,264,,11,62,167,*7D
$GPGSV,3,2,09,17,40,287,,01,37,052,,23,36,192,,31,24,081,*7F
$GPGSV,3,3,09,14,09,039,*46
$GPGSA,A,1,,,,,,,,,,,,,11.2,5.0,10.0*36
$GPGGA,134243.58,,,,,00,00,5.0,,M,0.179099,M,0.0020199,*61
$GPRMC,134243.58,V,,,,,,,270208,,,N*7C
$GPGSV,3,1,09,28,253,256,,19,250,169,,20,70,264,,11,62,167,*7D
$GPGSV,3,2,09,17,40,287,,01,37,052,,23,36,192,,31,24,081,*7F
$GPGSV,3,3,09,14,09,039,*46
$GPGSA,A,1,,,,,,,,,,,,,11.2,5.0,10.0*36
$GPGGA,134244.56,,,,,00,00,5.0,,M,0.179099,M,0.0020199,*68
$GPRMC,134244.56,V,,,,,,,270208,,,N*75
$GPGSV,3,1,09,28,253,256,,19,250,169,,20,70,264,,11,62,167,*7D
$GPGSV,3,2,09,17,40,287,,01,37,052,,23,36,192,,31,24,081,*7F
$GPGSV,3,3,09,14,09,039,*46
$GPGSA,A,1,,,,,,,,,,,,,11.2,5.0,10.0*36
$GPGGA,134245.55,,,,,00,00,5.0,,M,0.179099,M,0.0020199,*6A
$GPRMC,134245.55,V,,,,,,,270208,,,N*77
$GPGSV,3,1,09,28,253,256,,19,250,169,,20,70,264,,11,62,167,*7D
$GPGSV,3,2,09,17,40,287,,01,37,052,,23,36,192,,31,24,081,*7F
$GPGSV,3,3,09,14,09,039,*46
$GPGSA,A,1,,,,,,,,,,,,,11.2,5.0,10.0*36
$GPGGA,134246.53,,,,,00,00,5.0,,M,0.179099,M,0.0020199,*6F
$GPRMC,134246.53,V,,,,,,,270208,,,N*72
$GPGSV,3,1,09,28,253,256,,19,250,169,,20,70,264,,11,62,167,*7D
$GPGSV,3,2,09,17,40,287,,01,37,052,,23,36,192,,31,24,081,*7F
$GPGSV,3,3,09,14,09,039,*46
$GPGSA,A,1,,,,,,,,,,,,,11.2,5.0,10.0*36
$GPGGA,134247.61,,,,,00,00,5.0,,M,0.179099,M,0.0020199,*6F
$GPRMC,134247.61,V,,,,,,,270208,,,N*72
$GPGSV,3,1,09,28,253,256,,19,250,169,,20,70,264,,11,62,167,*7D
$GPGSV,3,2,09,17,40,287,,01,37,052,,23,36,192,,31,24,081,*7F
$GPGSV,3,3,09,14,09,039,*46
$GPGSA,A,1,,,,,,,,,,,,,11.2,5.0,10.0*36
$GPGGA,134248.59,,,,,00,00,5.0,,M,0.179099,M,0.0020199,*6B
$GPRMC,134248.59,V,,,,,,,270208,,,N*76
$GPGSV,3,1,09,28,253,256,,19,250,169,,20,70,264,,11,62,167,*7D
$GPGSV,3,2,09,17,40,287,,01,37,052,,23,36,192,,31,24,081,*7F
$GPGSV,3,3,09,14,09,039,*46
$GPGSA,A,1,,,,,,,,,,,,,11.2,5.0,10.0*36
$GPGGA,134249.67,,,,,00,00,5.0,,M,0.179099,M,0.0020199,*67
$GPRMC,134249.67,V,,,,,,,270208,,,N*7A
$GPGSV,3,1,09,28,253,256,,19,250,169,,20,70,264,,11,62,167,*7D
$GPGSV,3,2,09,17,40,287,,01,37,052,,23,36,192,,31,24,081,*7F
$GPGSV,3,3,09,14,09,039,*46
$GPGSA,A,1,,,,,,,,,,,,,11.2,5.0,10.0*36
$GPGGA,134250.50,,,,,00,00,5.0,,M,0.179099,M,0.0020199,*6B
$GPRMC,134250.50,V,,,,,,,270208,,,N*76
$GPGSV,3,1,09,28,253,256,,19,250,169,,20,70,264,,11,62,167,*7D
$GPGSV,3,2,09,17,40,287,,01,37,052,,23,36,192,,31,24,081,*7F
$GPGSV,3,3,09,14,09,039,*46
$GPGSA,A,1,,,,,,,,,,,,,11.2,5.0,10.0*36
$GPGGA,134251.60,,,,,00,00,5.0,,M,0.179099,M,0.0020199,*69
$GPRMC,134251.60,V,,,,,,,270208,,,N*74
$GPGSA,A,1,,,,,,,,,,,,,11.2,5.0,10.0*36
$GPGGA,134252.53,,,,,00,00,5.0,,M,0.179099,M,0.0020199,*6A
$GPRMC,134252.53,V,,,,,,,270208,,,N*77
$GPGSA,A,1,,,,,,,,,,,,,11.2,5.0,10.0*36
$GPGGA,134253.54,,,,,00,00,5.0,,M,0.179099,M,0.0020199,*6C
$GPRMC,134253.54,V,,,,,,,270208,,,N*71
$GPGSA,A,1,,,,,,,,,,,,,11.2,5.0,10.0*36
$GPGGA,134254.62,,,,,00,00,5.0,,M,0.179099,M,0.0020199,*6E
$GPRMC,134254.62,V,,,,,,,270208,,,N*73
$GPGSA,A,1,,,,,,,,,,,,,11.2,5.0,10.0*36
$PGLOR,IGR,81.2,7,71519,0,1*02
$GPGGA,134255.60,,,,,00,00,5.0,,M,0.179099,M,0.0020199,*6D
$GPRMC,134255.60,V,,,,,,,270208,,,N*70
$GPGSA,A,1,,,,,,,,,,,,,11.2,5.0,10.0*36
$GPGGA,134256.50,,,,,00,00,5.0,,M,0.179099,M,0.0020199,*6D
$GPRMC,134256.50,V,,,,,,,270208,,,N*70
$GPGSA,A,1,,,,,,,,,,,,,11.2,5.0,10.0*36
$GPGGA,134257.58,,,,,00,00,5.0,,M,0.179099,M,0.0020199,*64
$GPRMC,134257.58,V,,,,,,,270208,,,N*79
$GPGSA,A,1,,,,,,,,,,,,,11.2,5.0,10.0*36
$GPGGA,134258.56,,,,,00,00,5.0,,M,0.179099,M,0.0020199,*65
$GPRMC,134258.56,V,,,,,,,270208,,,N*78
$GPGSA,A,1,,,,,,,,,,,,,11.2,5.0,10.0*36
$GPGGA,134259.54,,,,,00,00,5.0,,M,0.179099,M,0.0020199,*66
$GPRMC,134259.54,V,,,,,,,270208,,,N*7B
$GPGSA,A,1,,,,,,,,,,,,,11.2,5.0,10.0*36
$GPGGA,134300.52,,,,,00,00,5.0,,M,0.179099,M,0.0020199,*6D
$GPRMC,134300.52,V,,,,,,,270208,,,N*70
$GPGSA,A,1,,,,,,,,,,,,,11.2,5.0,10.0*36
$GPGGA,134301.60,,,,,00,00,5.0,,M,0.179099,M,0.0020199,*6D
$GPRMC,134301.60,V,,,,,,,270208,,,N*70
$GPGSA,A,1,,,,,,,,,,,,,11.2,5.0,10.0*36
$GPGGA,134302.58,,,,,00,00,5.0,,M,0.179099,M,0.0020199,*65
$GPRMC,134302.58,V,,,,,,,270208,,,N*78
$GPGSA,A,1,,,,,,,,,,,,,11.2,5.0,10.0*36
$GPGGA,134303.66,,,,,00,00,5.0,,M,0.179099,M,0.0020199,*69
$GPRMC,134303.66,V,,,,,,,270208,,,N*74
$GPGSA,A,1,,,,,,,,,,,,,11.2,5.0,10.0*36
$GPGGA,134304.54,,,,,00,00,5.0,,M,0.179099,M,0.0020199,*6F
$GPRMC,134304.54,V,,,,,,,270208,,,N*72
$GPGSA,A,1,,,,,,,,,,,,,11.2,5.0,10.0*36
$GPGGA,134305.62,,,,,00,00,5.0,,M,0.179099,M,0.0020199,*6B
$GPRMC,134305.62,V,,,,,,,270208,,,N*76
$GPGSA,A,1,,,,,,,,,,,,,11.2,5.0,10.0*36
$GPGGA,134306.50,,,,,00,00,5.0,,M,0.179099,M,0.0020199,*69
$GPRMC,134306.50,V,,,,,,,270208,,,N*74
$GPGSA,A,1,,,,,,,,,,,,,11.2,5.0,10.0*36
$GPGGA,134307.58,,,,,00,00,5.0,,M,0.179099,M,0.0020199,*60
$GPRMC,134307.58,V,,,,,,,270208,,,N*7D
$GPGSA,A,1,,,,,,,,,,,,,11.2,5.0,10.0*36
$GPGGA,134308.56,,,,,00,00,5.0,,M,0.179099,M,0.0020199,*61
$GPRMC,134308.56,V,,,,,,,270208,,,N*7C
$GPGSA,A,1,,,,,,,,,,,,,11.2,5.0,10.0*36
$GPGGA,134309.50,,,,,00,00,5.0,,M,0.179099,M,0.0020199,*66
$GPRMC,134309.50,V,,,,,,,270208,,,N*7B
$GPGSA,A,1,,,,,,,,,,,,,11.2,5.0,10.0*36
$GPGGA,134310.54,,,,,00,00,5.0,,M,0.179099,M,0.0020199,*6A
$GPRMC,134310.54,V,,,,,,,270208,,,N*77
$GPGSA,A,1,,,,,,,,,,,,,11.2,5.0,10.0*36
$GPGGA,134311.52,,,,,00,00,5.0,,M,0.179099,M,0.0020199,*6D
$GPRMC,134311.52,V,,,,,,,270208,,,N*70
$GPGSA,A,1,,,,,,,,,,,,,11.2,5.0,10.0*36
$GPGGA,134312.50,,,,,00,00,5.0,,M,0.179099,M,0.0020199,*6C
$GPRMC,134312.50,V,,,,,,,270208,,,N*71
$GPGSA,A,1,,,,,,,,,,,,,11.2,5.0,10.0*36
$GPGGA,134313.58,,,,,00,00,5.0,,M,0.179099,M,0.0020199,*65
$GPRMC,134313.58,V,,,,,,,270208,,,N*78
$GPGSA,A,1,,,,,,,,,,,,,11.2,5.0,10.0*36
$GPGGA,134314.56,,,,,00,00,5.0,,M,0.179099,M,0.0020199,*6C
$GPRMC,134314.56,V,,,,,,,270208,,,N*71
$GPGSA,A,1,,,,,,,,,,,,,11.2,5.0,10.0*36
$GPGGA,134315.54,,,,,00,00,5.0,,M,0.179099,M,0.0020199,*6F
$GPRMC,134315.54,V,,,,,,,270208,,,N*72
$GPGSA,A,1,,,,,,,,,,,,,11.2,5.0,10.0*36
$GPGGA,134316.52,,,,,00,00,5.0,,M,0.179099,M,0.0020199,*6A
$GPRMC,134316.52,V,,,,,,,270208,,,N*77
$GPGSA,A,1,,,,,,,,,,,,,11.2,5.0,10.0*36
$GPGGA,134317.50,,,,,00,00,5.0,,M,0.179099,M,0.0020199,*69
$GPRMC,134317.50,V,,,,,,,270208,,,N*74
$GPGSA,A,1,,,,,,,,,,,,,11.2,5.0,10.0*36
$GPGGA,134318.58,,,,,00,00,5.0,,M,0.179099,M,0.0020199,*6E
$GPRMC,134318.58,V,,,,,,,270208,,,N*73
$GPGSA,A,1,,,,,,,,,,,,,11.2,5.0,10.0*36
$GPGGA,134319.56,,,,,00,00,5.0,,M,0.179099,M,0.0020199,*61
$GPRMC,134319.56,V,,,,,,,270208,,,N*7C
$GPGSA,A,1,,,,,,,,,,,,,11.2,5.0,10.0*36
$GPGGA,134320.54,,,,,00,00,5.0,,M,0.179099,M,0.0020199,*69
$GPRMC,134320.54,V,,,,,,,270208,,,N*74
$GPGSA,A,1,,,,,,,,,,,,,11.2,5.0,10.0*36
$GPGGA,134321.52,,,,,00,00,5.0,,M,0.179099,M,0.0020199,*6E
$GPRMC,134321.52,V,,,,,,,270208,,,N*73
$GPGSA,A,1,,,,,,,,,,,,,11.2,5.0,10.0*36
$GPGGA,134322.60,,,,,00,00,5.0,,M,0.179099,M,0.0020199,*6C
$GPRMC,134322.60,V,,,,,,,270208,,,N*71
$GPGSA,A,1,,,,,,,,,,,,,11.2,5.0,10.0*36
$GPGGA,134323.54,,,,,00,00,5.0,,M,0.179099,M,0.0020199,*6A
$GPRMC,134323.54,V,,,,,,,270208,,,N*77
$GPGSA,A,1,,,,,,,,,,,,,11.2,5.0,10.0*36
$GPGGA,134324.61,,,,,00,00,5.0,,M,0.179099,M,0.0020199,*6B
$GPRMC,134324.61,V,,,,,,,270208,,,N*76
$GPGSA,A,1,,,,,,,,,,,,,11.2,5.0,10.0*36
$GPGGA,134325.57,,,,,00,00,5.0,,M,0.179099,M,0.0020199,*6F
$GPRMC,134325.57,V,,,,,,,270208,,,N*72
$GPGSA,A,1,,,,,,,,,,,,,11.2,5.0,10.0*36
$GPGGA,134326.63,,,,,00,00,5.0,,M,0.179099,M,0.0020199,*6B
$GPRMC,134326.63,V,,,,,,,270208,,,N*76
$GPGSA,A,1,,,,,,,,,,,,,11.2,5.0,10.0*36
$GPGGA,134327.52,,,,,00,00,5.0,,M,0.179099,M,0.0020199,*68
$GPRMC,134327.52,V,,,,,,,270208,,,N*75
$GPGSA,A,1,,,,,,,,,,,,,11.2,5.0,10.0*36
$GPGGA,134328.60,,,,,00,00,5.0,,M,0.179099,M,0.0020199,*66
$GPRMC,134328.60,V,,,,,,,270208,,,N*7B
$GPGSA,A,1,,,,,,,,,,,,,11.2,5.0,10.0*36
$GPGGA,134329.58,,,,,00,00,5.0,,M,0.179099,M,0.0020199,*6C
$GPRMC,134329.58,V,,,,,,,270208,,,N*71
$GPGSA,A,1,,,,,,,,,,,,,11.2,5.0,10.0*36
$GPGGA,134330.66,,,,,00,00,5.0,,M,0.179099,M,0.0020199,*69
$GPRMC,134330.66,V,,,,,,,270208,,,N*74
$GPGSA,A,1,,,,,,,,,,,,,11.2,5.0,10.0*36
$GPGGA,134331.54,,,,,00,00,5.0,,M,0.179099,M,0.0020199,*69
$GPRMC,134331.54,V,,,,,,,270208,,,N*74
$GPGSA,A,1,,,,,,,,,,,,,11.2,5.0,10.0*36
$GPGGA,134332.62,,,,,00,00,5.0,,M,0.179099,M,0.0020199,*6F
$GPRMC,134332.62,V,,,,,,,270208,,,N*72
$GPGSA,A,1,,,,,,,,,,,,,11.2,5.0,10.0*36
$GPGGA,134333.50,,,,,00,00,5.0,,M,0.179099,M,0.0020199,*6F
$GPRMC,134333.50,V,,,,,,,270208,,,N*72
$GPGSA,A,1,,,,,,,,,,,,,11.2,5.0,10.0*36
$GPGGA,134334.58,,,,,00,00,5.0,,M,0.179099,M,0.0020199,*60
$GPRMC,134334.58,V,,,,,,,270208,,,N*7D
$GPGSA,A,1,,,,,,,,,,,,,11.2,5.0,10.0*36
$GPGGA,134335.56,,,,,00,00,5.0,,M,0.179099,M,0.0020199,*6F
$GPRMC,134335.56,V,,,,,,,270208,,,N*72
$GPGSA,A,1,,,,,,,,,,,,,11.2,5.0,10.0*36
$GPGGA,134336.51,,,,,00,00,5.0,,M,0.179099,M,0.0020199,*6B
$GPRMC,134336.51,V,,,,,,,270208,,,N*76
$GPGSA,A,1,,,,,,,,,,,,,11.2,5.0,10.0*36
$GPGGA,134337.53,,,,,00,00,5.0,,M,0.179099,M,0.0020199,*68
$GPRMC,134337.53,V,,,,,,,270208,,,N*75
$GPGSA,A,1,,,,,,,,,,,,,11.2,5.0,10.0*36
$GPGGA,134338.59,,,,,00,00,5.0,,M,0.179099,M,0.0020199,*6D
$GPRMC,134338.59,V,,,,,,,270208,,,N*70
$GPGSA,A,1,,,,,,,,,,,,,11.2,5.0,10.0*36
$GPGGA,134339.55,,,,,00,00,5.0,,M,0.179099,M,0.0020199,*60
$GPRMC,134339.55,V,,,,,,,270208,,,N*7D
$GPGSA,A,1,,,,,,,,,,,,,11.2,5.0,10.0*36
$GPGGA,134340.51,,,,,00,00,5.0,,M,0.179099,M,0.0020199,*6A
$GPRMC,134340.51,V,,,,,,,270208,,,N*77
$GPGSA,A,1,,,,,,,,,,,,,11.2,5.0,10.0*36
$GPGGA,134341.57,,,,,00,00,5.0,,M,0.179099,M,0.0020199,*6D
$GPRMC,134341.57,V,,,,,,,270208,,,N*70
$GPGSA,A,1,,,,,,,,,,,,,11.2,5.0,10.0*36
$GPGGA,134342.53,,,,,00,00,5.0,,M,0.179099,M,0.0020199,*6A
$GPRMC,134342.53,V,,,,,,,270208,,,N*77
$GPGSA,A,1,,,,,,,,,,,,,11.2,5.0,10.0*36
$GPGGA,134343.59,,,,,00,00,5.0,,M,0.179099,M,0.0020199,*61
$GPRMC,134343.59,V,,,,,,,270208,,,N*7C
$GPGSA,A,1,,,,,,,,,,,,,11.2,5.0,10.0*36
$GPGGA,134344.52,,,,,00,00,5.0,,M,0.179099,M,0.0020199,*6D
$GPRMC,134344.52,V,,,,,,,270208,,,N*70
$GPGSA,A,1,,,,,,,,,,,,,11.2,5.0,10.0*36
$GPGGA,134345.58,,,,,00,00,5.0,,M,0.179099,M,0.0020199,*66
$GPRMC,134345.58,V,,,,,,,270208,,,N*7B
$GPGSA,A,1,,,,,,,,,,,,,11.2,5.0,10.0*36
$GPGGA,134346.56,,,,,00,00,5.0,,M,0.179099,M,0.0020199,*6B
$GPRMC,134346.56,V,,,,,,,270208,,,N*76
$GPGSA,A,1,,,,,,,,,,,,,11.2,5.0,10.0*36
$GPGGA,134347.54,,,,,00,00,5.0,,M,0.179099,M,0.0020199,*68
$GPRMC,134347.54,V,,,,,,,270208,,,N*75
$GPGSA,A,1,,,,,,,,,,,,,11.2,5.0,10.0*36
$GPGGA,134348.52,,,,,00,00,5.0,,M,0.179099,M,0.0020199,*61
$GPRMC,134348.52,V,,,,,,,270208,,,N*7C
$GPGSA,A,1,,,,,,,,,,,,,11.2,5.0,10.0*36
$GPGGA,134349.60,,,,,00,00,5.0,,M,0.179099,M,0.0020199,*61
$GPRMC,134349.60,V,,,,,,,270208,,,N*7C
$GPGSA,A,1,,,,,,,,,,,,,11.2,5.0,10.0*36
$GPGGA,134350.54,,,,,00,00,5.0,,M,0.179099,M,0.0020199,*6E
$GPRMC,134350.54,V,,,,,,,270208,,,N*73
$GPGSA,A,1,,,,,,,,,,,,,11.2,5.0,10.0*36
$GPGGA,134351.60,,,,,00,00,5.0,,M,0.179099,M,0.0020199,*68
$GPRMC,134351.60,V,,,,,,,270208,,,N*75
$GPGSA,A,1,,,,,,,,,,,,,11.2,5.0,10.0*36
$GPGGA,134352.56,,,,,00,00,5.0,,M,0.179099,M,0.0020199,*6E
$GPRMC,134352.56,V,,,,,,,270208,,,N*73
$GPGSA,A,1,,,,,,,,,,,,,11.2,5.0,10.0*36
$GPGGA,134353.62,,,,,00,00,5.0,,M,0.179099,M,0.0020199,*68
$GPRMC,134353.62,V,,,,,,,270208,,,N*75
$GPGSA,A,1,,,,,,,,,,,,,11.2,5.0,10.0*36
$GPGGA,134354.56,,,,,00,00,5.0,,M,0.179099,M,0.0020199,*68
$GPRMC,134354.56,V,,,,,,,270208,,,N*75
$GPGSA,A,1,,,,,,,,,,,,,11.2,5.0,10.0*36
$GPGGA,134355.62,,,,,00,00,5.0,,M,0.179099,M,0.0020199,*6E
$GPRMC,134355.62,V,,,,,,,270208,,,N*73
$GPGSA,A,1,,,,,,,,,,,,,11.2,5.0,10.0*36
$PGLOR,IGR,81.2,7,71416,0,1*0C
$GPGGA,134356.50,,,,,00,00,5.0,,M,0.179099,M,0.0020199,*6C
$GPRMC,134356.50,V,,,,,,,270208,,,N*71
$GPGSA,A,1,,,,,,,,,,,,,11.2,5.0,10.0*36
$GPGGA,134357.56,,,,,00,00,5.0,,M,0.179099,M,0.0020199,*6B
$GPRMC,134357.56,V,,,,,,,270208,,,N*76
$GPGSA,A,1,,,,,,,,,,,,,11.2,5.0,10.0*36
$GPGGA,134358.52,,,,,00,00,5.0,,M,0.179099,M,0.0020199,*60
$GPRMC,134358.52,V,,,,,,,270208,,,N*7D
$GPGSA,A,1,,,,,,,,,,,,,11.2,5.0,10.0*36
$GPGGA,134359.58,,,,,00,00,5.0,,M,0.179099,M,0.0020199,*6B
$GPRMC,134359.58,V,,,,,,,270208,,,N*76
$GPGSA,A,1,,,,,,,,,,,,,11.2,5.0,10.0*36
$GPGGA,134400.54,,,,,00,00,5.0,,M,0.179099,M,0.0020199,*6C
$GPRMC,134400.54,V,,,,,,,270208,,,N*71
$GPGSA,A,1,,,,,,,,,,,,,11.2,5.0,10.0*36
$GPGGA,134401.60,,,,,00,00,5.0,,M,0.179099,M,0.0020199,*6A
$GPRMC,134401.60,V,,,,,,,270208,,,N*77
$GPGSA,A,1,,,,,,,,,,,,,11.2,5.0,10.0*36
$GPGGA,134402.54,,,,,00,00,5.0,,M,0.179099,M,0.0020199,*6E
$GPRMC,134402.54,V,,,,,,,270208,,,N*73
$GPGSA,A,1,,,,,,,,,,,,,11.2,5.0,10.0*36
$GPGGA,134403.60,,,,,00,00,5.0,,M,0.179099,M,0.0020199,*68
$GPRMC,134403.60,V,,,,,,,270208,,,N*75
$GPGSA,A,1,,,,,,,,,,,,,11.2,5.0,10.0*36
$GPGGA,134404.52,,,,,00,00,5.0,,M,0.179099,M,0.0020199,*6E
$GPRMC,134404.52,V,,,,,,,270208,,,N*73
$GPGSA,A,1,,,,,,,,,,,,,11.2,5.0,10.0*36
$GPGGA,134405.58,,,,,00,00,5.0,,M,0.179099,M,0.0020199,*65
$GPRMC,134405.58,V,,,,,,,270208,,,N*78
$GPGSA,A,1,,,,,,,,,,,,,11.2,5.0,10.0*36
$GPGGA,134406.55,,,,,00,00,5.0,,M,0.179099,M,0.0020199,*6B
$GPRMC,134406.55,V,,,,,,,270208,,,N*76
$GPGSA,A,1,,,,,,,,,,,,,11.2,5.0,10.0*36
$GPGGA,134407.60,,,,,00,00,5.0,,M,0.179099,M,0.0020199,*6C
$GPRMC,134407.60,V,,,,,,,270208,,,N*71
$GPGSA,A,1,,,,,,,,,,,,,11.2,5.0,10.0*36
$GPGGA,134408.56,,,,,00,00,5.0,,M,0.179099,M,0.0020199,*66
$GPRMC,134408.56,V,,,,,,,270208,,,N*7B
$GPGSA,A,1,,,,,,,,,,,,,11.2,5.0,10.0*36
$GPGGA,134409.62,,,,,00,00,5.0,,M,0.179099,M,0.0020199,*60
$GPRMC,134409.62,V,,,,,,,270208,,,N*7D
$GPGSA,A,1,,,,,,,,,,,,,11.2,5.0,10.0*36
$GPGGA,134410.58,,,,,00,00,5.0,,M,0.179099,M,0.0020199,*61
$GPRMC,134410.58,V,,,,,,,270208,,,N*7C
$GPGSA,A,1,,,,,,,,,,,,,11.2,5.0,10.0*36
$GPGGA,134411.65,,,,,00,00,5.0,,M,0.179099,M,0.0020199,*6E
$GPRMC,134411.65,V,,,,,,,270208,,,N*73
$GPGSA,A,1,,,,,,,,,,,,,11.2,5.0,10.0*36
$GPGGA,134412.58,,,,,00,00,5.0,,M,0.179099,M,0.0020199,*63
$GPRMC,134412.58,V,,,,,,,270208,,,N*7E
$GPGSA,A,1,,,,,,,,,,,,,11.2,5.0,10.0*36
$GPGGA,134413.64,,,,,00,00,5.0,,M,0.179099,M,0.0020199,*6D
$GPRMC,134413.64,V,,,,,,,270208,,,N*70
$GPGSA,A,1,,,,,,,,,,,,,11.2,5.0,10.0*36
$GPGGA,134414.54,,,,,00,00,5.0,,M,0.179099,M,0.0020199,*69
$GPRMC,134414.54,V,,,,,,,270208,,,N*74
$GPGSA,A,1,,,,,,,,,,,,,11.2,5.0,10.0*36
$GPGGA,134415.62,,,,,00,00,5.0,,M,0.179099,M,0.0020199,*6D
$GPRMC,134415.62,V,,,,,,,270208,,,N*70
$GPGSA,A,1,,,,,,,,,,,,,11.2,5.0,10.0*36
$GPGGA,134416.50,,,,,00,00,5.0,,M,0.179099,M,0.0020199,*6F
$GPRMC,134416.50,V,,,,,,,270208,,,N*72
$GPGSA,A,1,,,,,,,,,,,,,11.2,5.0,10.0*36
$GPGGA,134417.54,,,,,00,00,5.0,,M,0.179099,M,0.0020199,*6A
$GPRMC,134417.54,V,,,,,,,270208,,,N*77
$GPGSA,A,1,,,,,,,,,,,,,11.2,5.0,10.0*36
$GPGGA,134418.50,,,,,00,00,5.0,,M,0.179099,M,0.0020199,*61
$GPRMC,134418.50,V,,,,,,,270208,,,N*7C
$GPGSA,A,1,,,,,,,,,,,,,11.2,5.0,10.0*36
$GPGGA,134419.56,,,,,00,00,5.0,,M,0.179099,M,0.0020199,*66
$GPRMC,134419.56,V,,,,,,,270208,,,N*7B
$GPGSA,A,1,,,,,,,,,,,,,11.2,5.0,10.0*36
$GPGGA,134420.52,,,,,00,00,5.0,,M,0.179099,M,0.0020199,*68
$GPRMC,134420.52,V,,,,,,,270208,,,N*75
$GPGSA,A,1,,,,,,,,,,,,,11.2,5.0,10.0*36
$GPGGA,134421.58,,,,,00,00,5.0,,M,0.179099,M,0.0020199,*63
$GPRMC,134421.58,V,,,,,,,270208,,,N*7E
$GPGSA,A,1,,,,,,,,,,,,,11.2,5.0,10.0*36
$GPGGA,134422.54,,,,,00,00,5.0,,M,0.179099,M,0.0020199,*6C
$GPRMC,134422.54,V,,,,,,,270208,,,N*71
$GPGSA,A,1,,,,,,,,,,,,,11.2,5.0,10.0*36
$GPGGA,134423.50,,,,,00,00,5.0,,M,0.179099,M,0.0020199,*69
$GPRMC,134423.50,V,,,,,,,270208,,,N*74
$GPGSA,A,1,,,,,,,,,,,,,11.2,5.0,10.0*36
$GPGGA,134424.56,,,,,00,00,5.0,,M,0.179099,M,0.0020199,*68
$GPRMC,134424.56,V,,,,,,,270208,,,N*75
$GPGSA,A,1,,,,,,,,,,,,,11.2,5.0,10.0*36
$GPGGA,134425.52,,,,,00,00,5.0,,M,0.179099,M,0.0020199,*6D
$GPRMC,134425.52,V,,,,,,,270208,,,N*70
$GPGSA,A,1,,,,,,,,,,,,,11.2,5.0,10.0*36
$GPGGA,134426.58,,,,,00,00,5.0,,M,0.179099,M,0.0020199,*64
$GPRMC,134426.58,V,,,,,,,270208,,,N*79
$GPGSA,A,1,,,,,,,,,,,,,11.2,5.0,10.0*36
$GPGGA,134427.54,,,,,00,00,5.0,,M,0.179099,M,0.0020199,*69
$GPRMC,134427.54,V,,,,,,,270208,,,N*74
$GPGSA,A,1,,,,,,,,,,,,,11.2,5.0,10.0*36
$GPGGA,134428.51,,,,,00,00,5.0,,M,0.179099,M,0.0020199,*63
$GPRMC,134428.51,V,,,,,,,270208,,,N*7E
$GPGSA,A,1,,,,,,,,,,,,,11.2,5.0,10.0*36
$GPGGA,134429.55,,,,,00,00,5.0,,M,0.179099,M,0.0020199,*66
$GPRMC,134429.55,V,,,,,,,270208,,,N*7B
$GPGSA,A,1,,,,,,,,,,,,,11.2,5.0,10.0*36
$GPGGA,134430.50,,,,,00,00,5.0,,M,0.179099,M,0.0020199,*6B
$GPRMC,134430.50,V,,,,,,,270208,,,N*76
$GPGSA,A,1,,,,,,,,,,,,,11.2,5.0,10.0*36
$GPGGA,134431.52,,,,,00,00,5.0,,M,0.179099,M,0.0020199,*68
$GPRMC,134431.52,V,,,,,,,270208,,,N*75
$GPGSA,A,1,,,,,,,,,,,,,11.2,5.0,10.0*36
$GPGGA,134432.58,,,,,00,00,5.0,,M,0.179099,M,0.0020199,*61
$GPRMC,134432.58,V,,,,,,,270208,,,N*7C
$GPGSA,A,1,,,,,,,,,,,,,11.2,5.0,10.0*36
$GPGGA,134433.54,,,,,00,00,5.0,,M,0.179099,M,0.0020199,*6C
$GPRMC,134433.54,V,,,,,,,270208,,,N*71
$GPGSA,A,1,,,,,,,,,,,,,11.2,5.0,10.0*36
$GPGGA,134434.50,,,,,00,00,5.0,,M,0.179099,M,0.0020199,*6F
$GPRMC,134434.50,V,,,,,,,270208,,,N*72
$GPGSA,A,1,,,,,,,,,,,,,11.2,5.0,10.0*36
$GPGGA,134435.58,,,,,00,00,5.0,,M,0.179099,M,0.0020199,*66
$GPRMC,134435.58,V,,,,,,,270208,,,N*7B
$GPGSA,A,1,,,,,,,,,,,,,11.2,5.0,10.0*36
$GPGGA,134436.56,,,,,00,00,5.0,,M,0.179099,M,0.0020199,*6B
$GPRMC,134436.56,V,,,,,,,270208,,,N*76
$GPGSA,A,1,,,,,,,,,,,,,11.2,5.0,10.0*36
$GPGGA,134437.54,,,,,00,00,5.0,,M,0.179099,M,0.0020199,*68
$GPRMC,134437.54,V,,,,,,,270208,,,N*75
$GPGSA,A,1,,,,,,,,,,,,,11.2,5.0,10.0*36
$GPGGA,134438.52,,,,,00,00,5.0,,M,0.179099,M,0.0020199,*61
$GPRMC,134438.52,V,,,,,,,270208,,,N*7C
$GPGSA,A,1,,,,,,,,,,,,,11.2,5.0,10.0*36
$GPGGA,134439.50,,,,,00,00,5.0,,M,0.179099,M,0.0020199,*62
$GPRMC,134439.50,V,,,,,,,270208,,,N*7F
$GPGSA,A,1,,,,,,,,,,,,,11.2,5.0,10.0*36
$GPGGA,134440.58,,,,,00,00,5.0,,M,0.179099,M,0.0020199,*64
$GPRMC,134440.58,V,,,,,,,270208,,,N*79
$GPGSA,A,1,,,,,,,,,,,,,11.2,5.0,10.0*36
$GPGGA,134441.56,,,,,00,00,5.0,,M,0.179099,M,0.0020199,*6B
$GPRMC,134441.56,V,,,,,,,270208,,,N*76
$GPGSA,A,1,,,,,,,,,,,,,11.2,5.0,10.0*36
$GPGGA,134442.54,,,,,00,00,5.0,,M,0.179099,M,0.0020199,*6A
$GPRMC,134442.54,V,,,,,,,270208,,,N*77
$GPGSA,A,1,,,,,,,,,,,,,11.2,5.0,10.0*36
$GPGGA,134443.50,,,,,00,00,5.0,,M,0.179099,M,0.0020199,*6F
$GPRMC,134443.50,V,,,,,,,270208,,,N*72
$GPGSA,A,1,,,,,,,,,,,,,11.2,5.0,10.0*36
$GPGGA,134444.56,,,,,00,00,5.0,,M,0.179099,M,0.0020199,*6E
$GPRMC,134444.56,V,,,,,,,270208,,,N*73
$GPGSA,A,1,,,,,,,,,,,,,11.2,5.0,10.0*36
$GPGGA,134445.50,,,,,00,00,5.0,,M,0.179099,M,0.0020199,*69
$GPRMC,134445.50,V,,,,,,,270208,,,N*74
$GPGSA,A,1,,,,,,,,,,,,,11.2,5.0,10.0*36
$GPGGA,134446.56,,,,,00,00,5.0,,M,0.179099,M,0.0020199,*6C
$GPRMC,134446.56,V,,,,,,,270208,,,N*71
$GPGSA,A,1,,,,,,,,,,,,,11.2,5.0,10.0*36
$GPGGA,134447.56,,,,,00,00,5.0,,M,0.179099,M,0.0020199,*6D
$GPRMC,134447.56,V,,,,,,,270208,,,N*70
$GPGSA,A,1,,,,,,,,,,,,,11.2,5.0,10.0*36
$GPGGA,134448.54,,,,,00,00,5.0,,M,0.179099,M,0.0020199,*60
$GPRMC,134448.54,V,,,,,,,270208,,,N*7D
$GPGSA,A,1,,,,,,,,,,,,,11.2,5.0,10.0*36
$GPGGA,134449.52,,,,,00,00,5.0,,M,0.179099,M,0.0020199,*67
$GPRMC,134449.52,V,,,,,,,270208,,,N*7A
$GPGSA,A,1,,,,,,,,,,,,,11.2,5.0,10.0*36
$GPGGA,134450.50,,,,,00,00,5.0,,M,0.179099,M,0.0020199,*6D
$GPRMC,134450.50,V,,,,,,,270208,,,N*70
$GPGSA,A,1,,,,,,,,,,,,,11.2,5.0,10.0*36
$GPGGA,134451.59,,,,,00,00,5.0,,M,0.179099,M,0.0020199,*65
$GPRMC,134451.59,V,,,,,,,270208,,,N*78
$GPGSA,A,1,,,,,,,,,,,,,11.2,5.0,10.0*36
$GPGGA,134452.56,,,,,00,00,5.0,,M,0.179099,M,0.0020199,*69
$GPRMC,134452.56,V,,,,,,,270208,,,N*74
$GPGSA,A,1,,,,,,,,,,,,,11.2,5.0,10.0*36
$GPGGA,134453.54,,,,,00,00,5.0,,M,0.179099,M,0.0020199,*6A
$GPRMC,134453.54,V,,,,,,,270208,,,N*77
$GPGSA,A,1,,,,,,,,,,,,,11.2,5.0,10.0*36
$GPGGA,134454.52,,,,,00,00,5.0,,M,0.179099,M,0.0020199,*6B
$GPRMC,134454.52,V,,,,,,,270208,,,N*76
$GPGSA,A,1,,,,,,,,,,,,,11.2,5.0,10.0*36
$GPGGA,134455.50,,,,,00,00,5.0,,M,0.179099,M,0.0020199,*68
$GPRMC,134455.50,V,,,,,,,270208,,,N*75
$GPGSA,A,1,,,,,,,,,,,,,11.2,5.0,10.0*36
$GPGGA,134456.58,,,,,00,00,5.0,,M,0.179099,M,0.0020199,*63
$GPRMC,134456.58,V,,,,,,,270208,,,N*7E
$GPGSA,A,1,,,,,,,,,,,,,11.2,5.0,10.0*36
$PGLOR,IGR,81.2,7,71437,0,1*0F
$GPGGA,134457.52,,,,,00,00,5.0,,M,0.179099,M,0.0020199,*68
$GPRMC,134457.52,V,,,,,,,270208,,,N*75
$GPGSA,A,1,,,,,,,,,,,,,11.2,5.0,10.0*36
$GPGGA,134458.55,,,,,00,00,5.0,,M,0.179099,M,0.0020199,*60
$GPRMC,134458.55,V,,,,,,,270208,,,N*7D
$GPGSA,A,1,,,,,,,,,,,,,11.2,5.0,10.0*36
$GPGGA,134459.51,,,,,00,00,5.0,,M,0.179099,M,0.0020199,*65
$GPRMC,134459.51,V,,,,,,,270208,,,N*78
$GPGSA,A,1,,,,,,,,,,,,,11.2,5.0,10.0*36
$GPGGA,134500.57,,,,,00,00,5.0,,M,0.179099,M,0.0020199,*6E
$GPRMC,134500.57,V,,,,,,,270208,,,N*73
$GPGSA,A,1,,,,,,,,,,,,,11.2,5.0,10.0*36
$GPGGA,134501.53,,,,,00,00,5.0,,M,0.179099,M,0.0020199,*6B
$GPRMC,134501.53,V,,,,,,,270208,,,N*76
$GPGSA,A,1,,,,,,,,,,,,,11.2,5.0,10.0*36
$GPGGA,134502.59,,,,,00,00,5.0,,M,0.179099,M,0.0020199,*62
$GPRMC,134502.59,V,,,,,,,270208,,,N*7F
$GPGSA,A,1,,,,,,,,,,,,,11.2,5.0,10.0*36
$GPGGA,134503.52,,,,,00,00,5.0,,M,0.179099,M,0.0020199,*68
$GPRMC,134503.52,V,,,,,,,270208,,,N*75
$GPGSA,A,1,,,,,,,,,,,,,11.2,5.0,10.0*36
$GPGGA,134504.54,,,,,00,00,5.0,,M,0.179099,M,0.0020199,*69
$GPRMC,134504.54,V,,,,,,,270208,,,N*74
$GPGSA,A,1,,,,,,,,,,,,,11.2,5.0,10.0*36
$GPGGA,134505.52,,,,,00,00,5.0,,M,0.179099,M,0.0020199,*6E
$GPRMC,134505.52,V,,,,,,,270208,,,N*73
$GPGSA,A,1,,,,,,,,,,,,,11.2,5.0,10.0*36
$GPGGA,134506.60,,,,,00,00,5.0,,M,0.179099,M,0.0020199,*6C
$GPRMC,134506.60,V,,,,,,,270208,,,N*71
$GPGSA,A,1,,,,,,,,,,,,,11.2,5.0,10.0*36
$GPGGA,134507.58,,,,,00,00,5.0,,M,0.179099,M,0.0020199,*66
$GPRMC,134507.58,V,,,,,,,270208,,,N*7B
$GPGSA,A,1,,,,,,,,,,,,,11.2,5.0,10.0*36
$GPGGA,134508.66,,,,,00,00,5.0,,M,0.179099,M,0.0020199,*64
$GPRMC,134508.66,V,,,,,,,270208,,,N*79
$GPGSA,A,1,,,,,,,,,,,,,11.2,5.0,10.0*36
$GPGGA,134509.54,,,,,00,00,5.0,,M,0.179099,M,0.0020199,*64
$GPRMC,134509.54,V,,,,,,,270208,,,N*79
$GPGSA,A,1,,,,,,,,,,,,,11.2,5.0,10.0*36
$GPGGA,134510.62,,,,,00,00,5.0,,M,0.179099,M,0.0020199,*69
$GPRMC,134510.62,V,,,,,,,270208,,,N*74
$GPGSA,A,1,,,,,,,,,,,,,11.2,5.0,10.0*36
$GPGGA,134511.53,,,,,00,00,5.0,,M,0.179099,M,0.0020199,*6A
$GPRMC,134511.53,V,,,,,,,270208,,,N*77
$GPGSA,A,1,,,,,,,,,,,,,11.2,5.0,10.0*36
$GPGGA,134512.59,,,,,00,00,5.0,,M,0.179099,M,0.0020199,*63
$GPRMC,134512.59,V,,,,,,,270208,,,N*7E
$GPGSA,A,1,,,,,,,,,,,,,11.2,5.0,10.0*36
$GPGGA,134513.54,,,,,00,00,5.0,,M,0.179099,M,0.0020199,*6F
$GPRMC,134513.54,V,,,,,,,270208,,,N*72
$GPGSA,A,1,,,,,,,,,,,,,11.2,5.0,10.0*36
$GPGGA,134514.55,,,,,00,00,5.0,,M,0.179099,M,0.0020199,*69
$GPRMC,134514.55,V,,,,,,,270208,,,N*74
$GPGSA,A,1,,,,,,,,,,,,,11.2,5.0,10.0*36
$GPGGA,134515.61,,,,,00,00,5.0,,M,0.179099,M,0.0020199,*6F
$GPRMC,134515.61,V,,,,,,,270208,,,N*72
$GPGSA,A,1,,,,,,,,,,,,,11.2,5.0,10.0*36
$GPGGA,134516.57,,,,,00,00,5.0,,M,0.179099,M,0.0020199,*69
$GPRMC,134516.57,V,,,,,,,270208,,,N*74
$GPGSA,A,1,,,,,,,,,,,,,11.2,5.0,10.0*36
$GPGGA,134517.63,,,,,00,00,5.0,,M,0.179099,M,0.0020199,*6F
$GPRMC,134517.63,V,,,,,,,270208,,,N*72
$GPGSA,A,1,,,,,,,,,,,,,11.2,5.0,10.0*36
$GPGGA,134518.59,,,,,00,00,5.0,,M,0.179099,M,0.0020199,*69
$GPRMC,134518.59,V,,,,,,,270208,,,N*74
$GPGSA,A,1,,,,,,,,,,,,,11.2,5.0,10.0*36
$GPGGA,134519.65,,,,,00,00,5.0,,M,0.179099,M,0.0020199,*67
$GPRMC,134519.65,V,,,,,,,270208,,,N*7A
$GPGSA,A,1,,,,,,,,,,,,,11.2,5.0,10.0*36
$GPGGA,134520.50,,,,,00,00,5.0,,M,0.179099,M,0.0020199,*6B
$GPRMC,134520.50,V,,,,,,,270208,,,N*76
$GPGSA,A,1,,,,,,,,,,,,,11.2,5.0,10.0*36
$GPGGA,134521.52,,,,,00,00,5.0,,M,0.179099,M,0.0020199,*68
$GPRMC,134521.52,V,,,,,,,270208,,,N*75
$GPGSA,A,1,,,,,,,,,,,,,11.2,5.0,10.0*36
$GPGGA,134522.60,,,,,00,00,5.0,,M,0.179099,M,0.0020199,*6A
$GPRMC,134522.60,V,,,,,,,270208,,,N*77
$GPGSA,A,1,,,,,,,,,,,,,11.2,5.0,10.0*36
$GPGGA,134523.58,,,,,00,00,5.0,,M,0.179099,M,0.0020199,*60
$GPRMC,134523.58,V,,,,,,,270208,,,N*7D
$GPGSA,A,1,,,,,,,,,,,,,11.2,5.0,10.0*36
$GPGGA,134524.66,,,,,00,00,5.0,,M,0.179099,M,0.0020199,*6A
$GPRMC,134524.66,V,,,,,,,270208,,,N*77
$GPGSA,A,1,,,,,,,,,,,,,11.2,5.0,10.0*36
$GPGGA,134525.51,,,,,00,00,5.0,,M,0.179099,M,0.0020199,*6F
$GPRMC,134525.51,V,,,,,,,270208,,,N*72
$GPGSA,A,1,,,,,,,,,,,,,11.2,5.0,10.0*36
$GPGGA,134526.57,,,,,00,00,5.0,,M,0.179099,M,0.0020199,*6A
$GPRMC,134526.57,V,,,,,,,270208,,,N*77
$GPGSA,A,1,,,,,,,,,,,,,11.2,5.0,10.0*36
$GPGGA,134527.53,,,,,00,00,5.0,,M,0.179099,M,0.0020199,*6F
$GPRMC,134527.53,V,,,,,,,270208,,,N*72
$GPGSA,A,1,,,,,,,,,,,,,11.2,5.0,10.0*36
$GPGGA,134528.59,,,,,00,00,5.0,,M,0.179099,M,0.0020199,*6A
$GPRMC,134528.59,V,,,,,,,270208,,,N*77
$GPGSA,A,1,,,,,,,,,,,,,11.2,5.0,10.0*36
$GPGGA,134529.55,,,,,00,00,5.0,,M,0.179099,M,0.0020199,*67
$GPRMC,134529.55,V,,,,,,,270208,,,N*7A
$GPGSA,A,1,,,,,,,,,,,,,11.2,5.0,10.0*36
$GPGGA,134530.61,,,,,00,00,5.0,,M,0.179099,M,0.0020199,*68
$GPRMC,134530.61,V,,,,,,,270208,,,N*75
$GPGSA,A,1,,,,,,,,,,,,,11.2,5.0,10.0*36
$GPGGA,134531.51,,,,,00,00,5.0,,M,0.179099,M,0.0020199,*6A
$GPRMC,134531.51,V,,,,,,,270208,,,N*77
$GPGSA,A,1,,,,,,,,,,,,,11.2,5.0,10.0*36
$GPGGA,134532.57,,,,,00,00,5.0,,M,0.179099,M,0.0020199,*6F
$GPRMC,134532.57,V,,,,,,,270208,,,N*72
$GPGSA,A,1,,,,,,,,,,,,,11.2,5.0,10.0*36
$GPGGA,134533.53,,,,,00,00,5.0,,M,0.179099,M,0.0020199,*6A
$GPRMC,134533.53,V,,,,,,,270208,,,N*77
$GPGSA,A,1,,,,,,,,,,,,,11.2,5.0,10.0*36
$GPGGA,134534.59,,,,,00,00,5.0,,M,0.179099,M,0.0020199,*67
$GPRMC,134534.59,V,,,,,,,270208,,,N*7A
$GPGSA,A,1,,,,,,,,,,,,,11.2,5.0,10.0*36
$GPGGA,134535.57,,,,,00,00,5.0,,M,0.179099,M,0.0020199,*68
$GPRMC,134535.57,V,,,,,,,270208,,,N*75
$GPGSA,A,1,,,,,,,,,,,,,11.2,5.0,10.0*36
$GPGGA,134536.55,,,,,00,00,5.0,,M,0.179099,M,0.0020199,*69
$GPRMC,134536.55,V,,,,,,,270208,,,N*74
$GPGSA,A,1,,,,,,,,,,,,,11.2,5.0,10.0*36
$GPGGA,134537.51,,,,,00,00,5.0,,M,0.179099,M,0.0020199,*6C
$GPRMC,134537.51,V,,,,,,,270208,,,N*71
$GPGSA,A,1,,,,,,,,,,,,,11.2,5.0,10.0*36
$GPGGA,134538.53,,,,,00,00,5.0,,M,0.179099,M,0.0020199,*61
$GPRMC,134538.53,V,,,,,,,270208,,,N*7C
$GPGSA,A,1,,,,,,,,,,,,,11.2,5.0,10.0*36
$GPGGA,134539.59,,,,,00,00,5.0,,M,0.179099,M,0.0020199,*6A
$GPRMC,134539.59,V,,,,,,,270208,,,N*77
$GPGSA,A,1,,,,,,,,,,,,,11.2,5.0,10.0*36
$GPGGA,134540.55,,,,,00,00,5.0,,M,0.179099,M,0.0020199,*68
$GPRMC,134540.55,V,,,,,,,270208,,,N*75
$GPGSA,A,1,,,,,,,,,,,,,11.2,5.0,10.0*36
$GPGGA,134541.61,,,,,00,00,5.0,,M,0.179099,M,0.0020199,*6E
$GPRMC,134541.61,V,,,,,,,270208,,,N*73
$GPGSA,A,1,,,,,,,,,,,,,11.2,5.0,10.0*36
$GPGGA,134542.57,,,,,00,00,5.0,,M,0.179099,M,0.0020199,*68
$GPRMC,134542.57,V,,,,,,,270208,,,N*75
$GPGSA,A,1,,,,,,,,,,,,,11.2,5.0,10.0*36
$GPGGA,134543.63,,,,,00,00,5.0,,M,0.179099,M,0.0020199,*6E
$GPRMC,134543.63,V,,,,,,,270208,,,N*73
$GPGSA,A,1,,,,,,,,,,,,,11.2,5.0,10.0*36
$GPGGA,134544.59,,,,,00,00,5.0,,M,0.179099,M,0.0020199,*60
$GPRMC,134544.59,V,,,,,,,270208,,,N*7D
$GPGSA,A,1,,,,,,,,,,,,,11.2,5.0,10.0*36
$GPGGA,134545.65,,,,,00,00,5.0,,M,0.179099,M,0.0020199,*6E
$GPRMC,134545.65,V,,,,,,,270208,,,N*73
$GPGSA,A,1,,,,,,,,,,,,,11.2,5.0,10.0*36
$GPGGA,134546.51,,,,,00,00,5.0,,M,0.179099,M,0.0020199,*6A
$GPRMC,134546.51,V,,,,,,,270208,,,N*77
$GPGSA,A,1,,,,,,,,,,,,,11.2,5.0,10.0*36
$GPGGA,134547.57,,,,,00,00,5.0,,M,0.179099,M,0.0020199,*6D
$GPRMC,134547.57,V,,,,,,,270208,,,N*70
$GPGSA,A,1,,,,,,,,,,,,,11.2,5.0,10.0*36
$GPGGA,134548.52,,,,,00,00,5.0,,M,0.179099,M,0.0020199,*67
$GPRMC,134548.52,V,,,,,,,270208,,,N*7A
$GPGSA,A,1,,,,,,,,,,,,,11.2,5.0,10.0*36
$GPGGA,134549.56,,,,,00,00,5.0,,M,0.179099,M,0.0020199,*62
$GPRMC,134549.56,V,,,,,,,270208,,,N*7F
$GPGSA,A,1,,,,,,,,,,,,,11.2,5.0,10.0*36
$GPGGA,134550.59,,,,,00,00,5.0,,M,0.179099,M,0.0020199,*65
$GPRMC,134550.59,V,,,,,,,270208,,,N*78
$GPGSA,A,1,,,,,,,,,,,,,11.2,5.0,10.0*36
$GPGGA,134551.52,,,,,00,00,5.0,,M,0.179099,M,0.0020199,*6F
$GPRMC,134551.52,V,,,,,,,270208,,,N*72
$GPGSA,A,1,,,,,,,,,,,,,11.2,5.0,10.0*36
$GPGGA,134552.60,,,,,00,00,5.0,,M,0.179099,M,0.0020199,*6D
$GPRMC,134552.60,V,,,,,,,270208,,,N*70
$GPGSA,A,1,,,,,,,,,,,,,11.2,5.0,10.0*36
$GPGGA,134553.56,,,,,00,00,5.0,,M,0.179099,M,0.0020199,*69
$GPRMC,134553.56,V,,,,,,,270208,,,N*74
$GPGSA,A,1,,,,,,,,,,,,,11.2,5.0,10.0*36
$GPGGA,134554.62,,,,,00,00,5.0,,M,0.179099,M,0.0020199,*69
$GPRMC,134554.62,V,,,,,,,270208,,,N*74
$GPGSA,A,1,,,,,,,,,,,,,11.2,5.0,10.0*36
$GPGGA,134555.58,,,,,00,00,5.0,,M,0.179099,M,0.0020199,*61
$GPRMC,134555.58,V,,,,,,,270208,,,N*7C
$GPGSA,A,1,,,,,,,,,,,,,11.2,5.0,10.0*36
$GPGGA,134556.64,,,,,00,00,5.0,,M,0.179099,M,0.0020199,*6D
$GPRMC,134556.64,V,,,,,,,270208,,,N*70
$GPGSA,A,1,,,,,,,,,,,,,11.2,5.0,10.0*36
$PGLOR,IGR,81.2,7,71438,0,1*00
$GPGGA,134557.50,,,,,00,00,5.0,,M,0.179099,M,0.0020199,*6B
$GPRMC,134557.50,V,,,,,,,270208,,,N*76
$GPGSA,A,1,,,,,,,,,,,,,11.2,5.0,10.0*36
$GPGGA,134558.56,,,,,00,00,5.0,,M,0.179099,M,0.0020199,*62
$GPRMC,134558.56,V,,,,,,,270208,,,N*7F
$GPGSA,A,1,,,,,,,,,,,,,11.2,5.0,10.0*36
$GPGGA,134559.54,,,,,00,00,5.0,,M,0.179099,M,0.0020199,*61
$GPRMC,134559.54,V,,,,,,,270208,,,N*7C
$GPGSA,A,1,,,,,,,,,,,,,11.2,5.0,10.0*36
$GPGGA,134600.52,,,,,00,00,5.0,,M,0.179099,M,0.0020199,*68
$GPRMC,134600.52,V,,,,,,,270208,,,N*75
$GPGSA,A,1,,,,,,,,,,,,,11.2,5.0,10.0*36
$GPGGA,134601.60,,,,,00,00,5.0,,M,0.179099,M,0.0020199,*68
$GPRMC,134601.60,V,,,,,,,270208,,,N*75
$GPGSA,A,1,,,,,,,,,,,,,11.2,5.0,10.0*36
$GPGGA,134602.58,,,,,00,00,5.0,,M,0.179099,M,0.0020199,*60
$GPRMC,134602.58,V,,,,,,,270208,,,N*7D
$GPGSA,A,1,,,,,,,,,,,,,11.2,5.0,10.0*36
$GPGGA,134603.66,,,,,00,00,5.0,,M,0.179099,M,0.0020199,*6C
$GPRMC,134603.66,V,,,,,,,270208,,,N*71
$GPGSA,A,1,,,,,,,,,,,,,11.2,5.0,10.0*36
$GPGGA,134604.50,,,,,00,00,5.0,,M,0.179099,M,0.0020199,*6E
$GPRMC,134604.50,V,,,,,,,270208,,,N*73
$GPGSA,A,1,,,,,,,,,,,,,11.2,5.0,10.0*36
$GPGGA,134605.52,,,,,00,00,5.0,,M,0.179099,M,0.0020199,*6D
$GPRMC,134605.52,V,,,,,,,270208,,,N*70
$GPGSA,A,1,,,,,,,,,,,,,11.2,5.0,10.0*36
$GPGGA,134606.52,,,,,00,00,5.0,,M,0.179099,M,0.0020199,*6E
$GPRMC,134606.52,V,,,,,,,270208,,,N*73
$GPGSA,A,1,,,,,,,,,,,,,11.2,5.0,10.0*36
$GPGGA,134607.60,,,,,00,00,5.0,,M,0.179099,M,0.0020199,*6E
$GPRMC,134607.60,V,,,,,,,270208,,,N*73
$GPGSA,A,1,,,,,,,,,,,,,11.2,5.0,10.0*36
$GPGGA,134608.58,,,,,00,00,5.0,,M,0.179099,M,0.0020199,*6A
$GPRMC,134608.58,V,,,,,,,270208,,,N*77
$GPGSA,A,1,,,,,,,,,,,,,11.2,5.0,10.0*36
$GPGGA,134609.66,,,,,00,00,5.0,,M,0.179099,M,0.0020199,*66
$GPRMC,134609.66,V,,,,,,,270208,,,N*7B
$GPGSA,A,1,,,,,,,,,,,,,11.2,5.0,10.0*36
$GPGGA,134610.54,,,,,00,00,5.0,,M,0.179099,M,0.0020199,*6F
$GPRMC,134610.54,V,,,,,,,270208,,,N*72
$GPGSA,A,1,,,,,,,,,,,,,11.2,5.0,10.0*36
$GPGGA,134611.62,,,,,00,00,5.0,,M,0.179099,M,0.0020199,*6B
$GPRMC,134611.62,V,,,,,,,270208,,,N*76
$GPGSA,A,1,,,,,,,,,,,,,11.2,5.0,10.0*36
$GPGGA,134612.50,,,,,00,00,5.0,,M,0.179099,M,0.0020199,*69
$GPRMC,134612.50,V,,,,,,,270208,,,N*74
$GPGSA,A,1,,,,,,,,,,,,,11.2,5.0,10.0*36
$GPGGA,134613.58,,,,,00,00,5.0,,M,0.179099,M,0.0020199,*60
$GPRMC,134613.58,V,,,,,,,270208,,,N*7D
$GPGSA,A,1,,,,,,,,,,,,,11.2,5.0,10.0*36
$GPGGA,134614.56,,,,,00,00,5.0,,M,0.179099,M,0.0020199,*69
$GPRMC,134614.56,V,,,,,,,270208,,,N*74
$GPGSA,A,1,,,,,,,,,,,,,11.2,5.0,10.0*36
$GPGGA,134615.54,,,,,00,00,5.0,,M,0.179099,M,0.0020199,*6A
$GPRMC,134615.54,V,,,,,,,270208,,,N*77
$GPGSA,A,1,,,,,,,,,,,,,11.2,5.0,10.0*36
$GPGGA,134616.52,,,,,00,00,5.0,,M,0.179099,M,0.0020199,*6F
$GPRMC,134616.52,V,,,,,,,270208,,,N*72
$GPGSA,A,1,,,,,,,,,,,,,11.2,5.0,10.0*36
$GPGGA,134617.60,,,,,00,00,5.0,,M,0.179099,M,0.0020199,*6F
$GPRMC,134617.60,V,,,,,,,270208,,,N*72
$GPGSA,A,1,,,,,,,,,,,,,11.2,5.0,10.0*36
$GPGGA,134618.54,,,,,00,00,5.0,,M,0.179099,M,0.0020199,*67
$GPRMC,134618.54,V,,,,,,,270208,,,N*7A
$GPGSA,A,1,,,,,,,,,,,,,11.2,5.0,10.0*36
$GPGGA,134619.62,,,,,00,00,5.0,,M,0.179099,M,0.0020199,*63
$GPRMC,134619.62,V,,,,,,,270208,,,N*7E
$GPGSA,A,1,,,,,,,,,,,,,11.2,5.0,10.0*36
$GPGGA,134620.59,,,,,00,00,5.0,,M,0.179099,M,0.0020199,*61
$GPRMC,134620.59,V,,,,,,,270208,,,N*7C
$GPGSA,A,1,,,,,,,,,,,,,11.2,5.0,10.0*36
$GPGGA,134621.65,,,,,00,00,5.0,,M,0.179099,M,0.0020199,*6F
$GPRMC,134621.65,V,,,,,,,270208,,,N*72
$GPGSA,A,1,,,,,,,,,,,,,11.2,5.0,10.0*36
$GPGGA,134622.50,,,,,00,00,5.0,,M,0.179099,M,0.0020199,*6A
$GPRMC,134622.50,V,,,,,,,270208,,,N*77
$GPGSA,A,1,,,,,,,,,,,,,11.2,5.0,10.0*36
$GPGGA,134623.54,,,,,00,00,5.0,,M,0.179099,M,0.0020199,*6F
$GPRMC,134623.54,V,,,,,,,270208,,,N*72
$GPGSA,A,1,,,,,,,,,,,,,11.2,5.0,10.0*36
$GPGGA,134624.58,,,,,00,00,5.0,,M,0.179099,M,0.0020199,*64
$GPRMC,134624.58,V,,,,,,,270208,,,N*79
$GPGSA,A,1,,,,,,,,,,,,,11.2,5.0,10.0*36
$GPGGA,134625.56,,,,,00,00,5.0,,M,0.179099,M,0.0020199,*6B
$GPRMC,134625.56,V,,,,,,,270208,,,N*76
$GPGSA,A,1,,,,,,,,,,,,,11.2,5.0,10.0*36
$GPGGA,134626.54,,,,,00,00,5.0,,M,0.179099,M,0.0020199,*6A
$GPRMC,134626.54,V,,,,,,,270208,,,N*77
$GPGSA,A,1,,,,,,,,,,,,,11.2,5.0,10.0*36
$GPGGA,134627.52,,,,,00,00,5.0,,M,0.179099,M,0.0020199,*6D
$GPRMC,134627.52,V,,,,,,,270208,,,N*70
$GPGSA,A,1,,,,,,,,,,,,,11.2,5.0,10.0*36
$GPGGA,134628.60,,,,,00,00,5.0,,M,0.179099,M,0.0020199,*63
$GPRMC,134628.60,V,,,,,,,270208,,,N*7E
$GPGSA,A,1,,,,,,,,,,,,,11.2,5.0,10.0*36
$GPGGA,134629.58,,,,,00,00,5.0,,M,0.179099,M,0.0020199,*69
$GPRMC,134629.58,V,,,,,,,270208,,,N*74
$GPGSA,A,1,,,,,,,,,,,,,11.2,5.0,10.0*36
$GPGGA,134630.66,,,,,00,00,5.0,,M,0.179099,M,0.0020199,*6C
$GPRMC,134630.66,V,,,,,,,270208,,,N*71
$GPGSA,A,1,,,,,,,,,,,,,11.2,5.0,10.0*36
$GPGGA,134631.50,,,,,00,00,5.0,,M,0.179099,M,0.0020199,*68
$GPRMC,134631.50,V,,,,,,,270208,,,N*75
$GPGSA,A,1,,,,,,,,,,,,,11.2,5.0,10.0*36
$GPGGA,134632.51,,,,,00,00,5.0,,M,0.179099,M,0.0020199,*6A
$GPRMC,134632.51,V,,,,,,,270208,,,N*77
$GPGSA,A,1,,,,,,,,,,,,,11.2,5.0,10.0*36
$GPGGA,134633.51,,,,,00,00,5.0,,M,0.179099,M,0.0020199,*6B
$GPRMC,134633.51,V,,,,,,,270208,,,N*76
$GPGSA,A,1,,,,,,,,,,,,,11.2,5.0,10.0*36
$GPGGA,134634.57,,,,,00,00,5.0,,M,0.179099,M,0.0020199,*6A
$GPRMC,134634.57,V,,,,,,,270208,,,N*77
$GPGSA,A,1,,,,,,,,,,,,,11.2,5.0,10.0*36
$GPGGA,134635.53,,,,,00,00,5.0,,M,0.179099,M,0.0020199,*6F
$GPRMC,134635.53,V,,,,,,,270208,,,N*72
$GPGSA,A,1,,,,,,,,,,,,,11.2,5.0,10.0*36
$GPGGA,134636.59,,,,,00,00,5.0,,M,0.179099,M,0.0020199,*66
$GPRMC,134636.59,V,,,,,,,270208,,,N*7B
$GPGSA,A,1,,,,,,,,,,,,,11.2,5.0,10.0*36
$GPGGA,134637.55,,,,,00,00,5.0,,M,0.179099,M,0.0020199,*6B
$GPRMC,134637.55,V,,,,,,,270208,,,N*76
$GPGSA,A,1,,,,,,,,,,,,,11.2,5.0,10.0*36
$GPGGA,134638.51,,,,,00,00,5.0,,M,0.179099,M,0.0020199,*60
$GPRMC,134638.51,V,,,,,,,270208,,,N*7D
$GPGSA,A,1,,,,,,,,,,,,,11.2,5.0,10.0*36
$GPGGA,134639.57,,,,,00,00,5.0,,M,0.179099,M,0.0020199,*67
$GPRMC,134639.57,V,,,,,,,270208,,,N*7A
$GPGSA,A,1,,,,,,,,,,,,,11.2,5.0,10.0*36
$GPGGA,134640.51,,,,,00,00,5.0,,M,0.179099,M,0.0020199,*6F
$GPRMC,134640.51,V,,,,,,,270208,,,N*72
$GPGSA,A,1,,,,,,,,,,,,,11.2,5.0,10.0*36
$GPGGA,134641.56,,,,,00,00,5.0,,M,0.179099,M,0.0020199,*69
$GPRMC,134641.56,V,,,,,,,270208,,,N*74
$GPGSA,A,1,,,,,,,,,,,,,11.2,5.0,10.0*36
$GPGGA,134642.54,,,,,00,00,5.0,,M,0.179099,M,0.0020199,*68
$GPRMC,134642.54,V,,,,,,,270208,,,N*75
$GPGSA,A,1,,,,,,,,,,,,,11.2,5.0,10.0*36
$GPGGA,134643.52,,,,,00,00,5.0,,M,0.179099,M,0.0020199,*6F
$GPRMC,134643.52,V,,,,,,,270208,,,N*72
$GPGSA,A,1,,,,,,,,,,,,,11.2,5.0,10.0*36
$GPGGA,134644.60,,,,,00,00,5.0,,M,0.179099,M,0.0020199,*69
$GPRMC,134644.60,V,,,,,,,270208,,,N*74
$GPGSA,A,1,,,,,,,,,,,,,11.2,5.0,10.0*36
$GPGGA,134645.54,,,,,00,00,5.0,,M,0.179099,M,0.0020199,*6F
$GPRMC,134645.54,V,,,,,,,270208,,,N*72
$GPGSA,A,1,,,,,,,,,,,,,11.2,5.0,10.0*36
$GPGGA,134646.61,,,,,00,00,5.0,,M,0.179099,M,0.0020199,*6A
$GPRMC,134646.61,V,,,,,,,270208,,,N*77
$GPGSA,A,1,,,,,,,,,,,,,11.2,5.0,10.0*36
$GPGGA,134647.57,,,,,00,00,5.0,,M,0.179099,M,0.0020199,*6E
$GPRMC,134647.57,V,,,,,,,270208,,,N*73
$GPGSA,A,1,,,,,,,,,,,,,11.2,5.0,10.0*36
$GPGGA,134648.63,,,,,00,00,5.0,,M,0.179099,M,0.0020199,*66
$GPRMC,134648.63,V,,,,,,,270208,,,N*7B
$GPGSA,A,1,,,,,,,,,,,,,11.2,5.0,10.0*36
$GPGGA,134649.59,,,,,00,00,5.0,,M,0.179099,M,0.0020199,*6E
$GPRMC,134649.59,V,,,,,,,270208,,,N*73
$GPGSA,A,1,,,,,,,,,,,,,11.2,5.0,10.0*36
$GPGGA,134650.65,,,,,00,00,5.0,,M,0.179099,M,0.0020199,*69
$GPRMC,134650.65,V,,,,,,,270208,,,N*74
$GPGSA,A,1,,,,,,,,,,,,,11.2,5.0,10.0*36
$GPGGA,134651.53,,,,,00,00,5.0,,M,0.179099,M,0.0020199,*6D
$GPRMC,134651.53,V,,,,,,,270208,,,N*70
$GPGSA,A,1,,,,,,,,,,,,,11.2,5.0,10.0*36
$GPGGA,134652.58,,,,,00,00,5.0,,M,0.179099,M,0.0020199,*65
$GPRMC,134652.58,V,,,,,,,270208,,,N*78
$GPGSA,A,1,,,,,,,,,,,,,11.2,5.0,10.0*36
$GPGGA,134653.54,,,,,00,00,5.0,,M,0.179099,M,0.0020199,*68
$GPRMC,134653.54,V,,,,,,,270208,,,N*75
$GPGSA,A,1,,,,,,,,,,,,,11.2,5.0,10.0*36
$GPGGA,134654.60,,,,,00,00,5.0,,M,0.179099,M,0.0020199,*68
$GPRMC,134654.60,V,,,,,,,270208,,,N*75
$GPGSA,A,1,,,,,,,,,,,,,11.2,5.0,10.0*36
$GPGGA,134655.56,,,,,00,00,5.0,,M,0.179099,M,0.0020199,*6C
$GPRMC,134655.56,V,,,,,,,270208,,,N*71
$GPGSA,A,1,,,,,,,,,,,,,11.2,5.0,10.0*36
$GPGGA,134656.62,,,,,00,00,5.0,,M,0.179099,M,0.0020199,*68
$GPRMC,134656.62,V,,,,,,,270208,,,N*75
$GPGSA,A,1,,,,,,,,,,,,,11.2,5.0,10.0*36
$GPGGA,134657.58,,,,,00,00,5.0,,M,0.179099,M,0.0020199,*60
$GPRMC,134657.58,V,,,,,,,270208,,,N*7D
$GPGSA,A,1,,,,,,,,,,,,,11.2,5.0,10.0*36
$PGLOR,IGR,81.2,7,71431,0,1*09
$GPGGA,134658.64,,,,,00,00,5.0,,M,0.179099,M,0.0020199,*60
$GPRMC,134658.64,V,,,,,,,270208,,,N*7D
$GPGSA,A,1,,,,,,,,,,,,,11.2,5.0,10.0*36
$GPGGA,134659.52,,,,,00,00,5.0,,M,0.179099,M,0.0020199,*64
$GPRMC,134659.52,V,,,,,,,270208,,,N*79
$GPGSA,A,1,,,,,,,,,,,,,11.2,5.0,10.0*36
$GPGGA,134700.58,,,,,00,00,5.0,,M,0.179099,M,0.0020199,*63
$GPRMC,134700.58,V,,,,,,,270208,,,N*7E
$GPGSA,A,1,,,,,,,,,,,,,11.2,5.0,10.0*36
$GPGGA,134701.54,,,,,00,00,5.0,,M,0.179099,M,0.0020199,*6E
$GPRMC,134701.54,V,,,,,,,270208,,,N*73
$GPGSA,A,1,,,,,,,,,,,,,11.2,5.0,10.0*36
$GPGGA,134702.60,,,,,00,00,5.0,,M,0.179099,M,0.0020199,*6A
$GPRMC,134702.60,V,,,,,,,270208,,,N*77
$GPGSA,A,1,,,,,,,,,,,,,11.2,5.0,10.0*36
$GPGGA,134703.56,,,,,00,00,5.0,,M,0.179099,M,0.0020199,*6E
$GPRMC,134703.56,V,,,,,,,270208,,,N*73
$GPGSA,A,1,,,,,,,,,,,,,11.2,5.0,10.0*36
$GPGGA,134704.62,,,,,00,00,5.0,,M,0.179099,M,0.0020199,*6E
$GPRMC,134704.62,V,,,,,,,270208,,,N*73
$GPGSA,A,1,,,,,,,,,,,,,11.2,5.0,10.0*36
$GPGGA,134705.59,,,,,00,00,5.0,,M,0.179099,M,0.0020199,*67
$GPRMC,134705.59,V,,,,,,,270208,,,N*7A
$GPGSA,A,1,,,,,,,,,,,,,11.2,5.0,10.0*36
$GPGGA,134706.64,,,,,00,00,5.0,,M,0.179099,M,0.0020199,*6A
$GPRMC,134706.64,V,,,,,,,270208,,,N*77
$GPGSA,A,1,,,,,,,,,,,,,11.2,5.0,10.0*36
$GPGGA,134707.50,,,,,00,00,5.0,,M,0.179099,M,0.0020199,*6C
$GPRMC,134707.50,V,,,,,,,270208,,,N*71
$GPGSA,A,1,,,,,,,,,,,,,11.2,5.0,10.0*36
$GPGGA,134708.50,,,,,00,00,5.0,,M,0.179099,M,0.0020199,*63
$GPRMC,134708.50,V,,,,,,,270208,,,N*7E
$GPGSA,A,1,,,,,,,,,,,,,11.2,5.0,10.0*36
$GPGGA,134709.54,,,,,00,00,5.0,,M,0.179099,M,0.0020199,*66
$GPRMC,134709.54,V,,,,,,,270208,,,N*7B
$GPGSA,A,1,,,,,,,,,,,,,11.2,5.0,10.0*36
$GPGGA,134710.57,,,,,00,00,5.0,,M,0.179099,M,0.0020199,*6D
$GPRMC,134710.57,V,,,,,,,270208,,,N*70
$GPGSA,A,1,,,,,,,,,,,,,11.2,5.0,10.0*36
$GPGGA,134711.55,,,,,00,00,5.0,,M,0.179099,M,0.0020199,*6E
$GPRMC,134711.55,V,,,,,,,270208,,,N*73
$GPGSA,A,1,,,,,,,,,,,,,11.2,5.0,10.0*36
$GPGGA,134712.50,,,,,00,00,5.0,,M,0.179099,M,0.0020199,*68
$GPRMC,134712.50,V,,,,,,,270208,,,N*75
$GPGSA,A,1,,,,,,,,,,,,,11.2,5.0,10.0*36
$GPGGA,134713.55,,,,,00,00,5.0,,M,0.179099,M,0.0020199,*6C
$GPRMC,134713.55,V,,,,,,,270208,,,N*71
$GPGSA,A,1,,,,,,,,,,,,,11.2,5.0,10.0*36
$GPGGA,134714.51,,,,,00,00,5.0,,M,0.179099,M,0.0020199,*6F
$GPRMC,134714.51,V,,,,,,,270208,,,N*72
$GPGSA,A,1,,,,,,,,,,,,,11.2,5.0,10.0*36
$GPGGA,134715.57,,,,,00,00,5.0,,M,0.179099,M,0.0020199,*68
$GPRMC,134715.57,V,,,,,,,270208,,,N*75
$GPGSA,A,1,,,,,,,,,,,,,11.2,5.0,10.0*36
$GPGGA,134716.53,,,,,00,00,5.0,,M,0.179099,M,0.0020199,*6F
$GPRMC,134716.53,V,,,,,,,270208,,,N*72
$GPGSA,A,1,,,,,,,,,,,,,11.2,5.0,10.0*36
$GPGGA,134717.59,,,,,00,00,5.0,,M,0.179099,M,0.0020199,*64
$GPRMC,134717.59,V,,,,,,,270208,,,N*79
$GPGSA,A,1,,,,,,,,,,,,,11.2,5.0,10.0*36
$GPGGA,134718.55,,,,,00,00,5.0,,M,0.179099,M,0.0020199,*67
$GPRMC,134718.55,V,,,,,,,270208,,,N*7A
$GPGSA,A,1,,,,,,,,,,,,,11.2,5.0,10.0*36
$GPGGA,134719.51,,,,,00,00,5.0,,M,0.179099,M,0.0020199,*62
$GPRMC,134719.51,V,,,,,,,270208,,,N*7F
$GPGSA,A,1,,,,,,,,,,,,,11.2,5.0,10.0*36
$GPGGA,134720.57,,,,,00,00,5.0,,M,0.179099,M,0.0020199,*6E
$GPRMC,134720.57,V,,,,,,,270208,,,N*73
$GPGSA,A,1,,,,,,,,,,,,,11.2,5.0,10.0*36
$GPGGA,134721.53,,,,,00,00,5.0,,M,0.179099,M,0.0020199,*6B
$GPRMC,134721.53,V,,,,,,,270208,,,N*76
$GPGSA,A,1,,,,,,,,,,,,,11.2,5.0,10.0*36
$GPGGA,134722.59,,,,,00,00,5.0,,M,0.179099,M,0.0020199,*62
$GPRMC,134722.59,V,,,,,,,270208,,,N*7F
$GPGSA,A,1,,,,,,,,,,,,,11.2,5.0,10.0*36
$GPGGA,134723.55,,,,,00,00,5.0,,M,0.179099,M,0.0020199,*6F
$GPRMC,134723.55,V,,,,,,,270208,,,N*72
$GPGSA,A,1,,,,,,,,,,,,,11.2,5.0,10.0*36
$GPGGA,134724.52,,,,,00,00,5.0,,M,0.179099,M,0.0020199,*6F
$GPRMC,134724.52,V,,,,,,,270208,,,N*72
$GPGSA,A,1,,,,,,,,,,,,,11.2,5.0,10.0*36
$GPGGA,134725.51,,,,,00,00,5.0,,M,0.179099,M,0.0020199,*6D
$GPRMC,134725.51,V,,,,,,,270208,,,N*70
$GPGSA,A,1,,,,,,,,,,,,,11.2,5.0,10.0*36
$GPGGA,134726.51,,,,,00,00,5.0,,M,0.179099,M,0.0020199,*6E
$GPRMC,134726.51,V,,,,,,,270208,,,N*73
$GPGSA,A,1,,,,,,,,,,,,,11.2,5.0,10.0*36
$GPGGA,134727.58,,,,,00,00,5.0,,M,0.179099,M,0.0020199,*66
$GPRMC,134727.58,V,,,,,,,270208,,,N*7B
$GPGSA,A,1,,,,,,,,,,,,,11.2,5.0,10.0*36
$GPGGA,134728.57,,,,,00,00,5.0,,M,0.179099,M,0.0020199,*66
$GPRMC,134728.57,V,,,,,,,270208,,,N*7B
$GPGSA,A,1,,,,,,,,,,,,,11.2,5.0,10.0*36
$GPGGA,134729.55,,,,,00,00,5.0,,M,0.179099,M,0.0020199,*65
$GPRMC,134729.55,V,,,,,,,270208,,,N*78
$GPGSA,A,1,,,,,,,,,,,,,11.2,5.0,10.0*36
$GPGGA,134730.53,,,,,00,00,5.0,,M,0.179099,M,0.0020199,*6B
$GPRMC,134730.53,V,,,,,,,270208,,,N*76
$GPGSA,A,1,,,,,,,,,,,,,11.2,5.0,10.0*36
$GPGGA,134731.51,,,,,00,00,5.0,,M,0.179099,M,0.0020199,*68
$GPRMC,134731.51,V,,,,,,,270208,,,N*75
$GPGSA,A,1,,,,,,,,,,,,,11.2,5.0,10.0*36
$GPGGA,134732.65,,,,,00,00,5.0,,M,0.179099,M,0.0020199,*6C
$GPRMC,134732.65,V,,,,,,,270208,,,N*71
$GPGSA,A,1,,,,,,,,,,,,,11.2,5.0,10.0*36
$GPGGA,134733.55,,,,,00,00,5.0,,M,0.179099,M,0.0020199,*6E
$GPRMC,134733.55,V,,,,,,,270208,,,N*73
$GPGSA,A,1,,,,,,,,,,,,,11.2,5.0,10.0*36
$GPGGA,134734.60,,,,,00,00,5.0,,M,0.179099,M,0.0020199,*6F
$GPRMC,134734.60,V,,,,,,,270208,,,N*72
$GPGSA,A,1,,,,,,,,,,,,,11.2,5.0,10.0*36
$GPGGA,134735.50,,,,,00,00,5.0,,M,0.179099,M,0.0020199,*6D
$GPRMC,134735.50,V,,,,,,,270208,,,N*70
$GPGSA,A,1,,,,,,,,,,,,,11.2,5.0,10.0*36
$GPGGA,134736.58,,,,,00,00,5.0,,M,0.179099,M,0.0020199,*66
$GPRMC,134736.58,V,,,,,,,270208,,,N*7B
$GPGSA,A,1,,,,,,,,,,,,,11.2,5.0,10.0*36
$GPGGA,134737.56,,,,,00,00,5.0,,M,0.179099,M,0.0020199,*69
$GPRMC,134737.56,V,,,,,,,270208,,,N*74
$GPGSA,A,1,,,,,,,,,,,,,11.2,5.0,10.0*36
$GPGGA,134738.54,,,,,00,00,5.0,,M,0.179099,M,0.0020199,*64
$GPRMC,134738.54,V,,,,,,,270208,,,N*79
$GPGSA,A,1,,,,,,,,,,,,,11.2,5.0,10.0*36
$GPGGA,134739.50,,,,,00,00,5.0,,M,

-------------------------------------------------------------------------
This SF.net email is sponsored by: Microsoft
Defy all challenges. Microsoft(R) Visual Studio 2008.
http://clk.atdmt.com/MRT/go/vse0120000070mrt/direct/01/
_______________________________________________
Gpsbabel-misc mailing list http://www.gpsbabel.org
[hidden email]
To unsubscribe, change list options, or see archives, visit:
https://lists.sourceforge.net/lists/listinfo/gpsbabel-misc
Reply | Threaded
Open this post in threaded view
|  
Report Content as Inappropriate

Re: NMEA to GPX not working

Robert Lipe-2


On Wed, Feb 27, 2008 at 1:28 PM, Chetan Thapliyal <[hidden email]> wrote:
Hi,

I have got the attached GPS log from my Openmoko phone today. While
converting the log format from NMEA to GPX using gpsbabel I am getting
an empty XML file. I used the following command for conversion.

I don't see a single valid GPS fix anywhere in this file.  Neither does GPSBabel.

Every one of ghe GPGGA lines shows no lat, no lon, and zero valid satellites.


-------------------------------------------------------------------------
This SF.net email is sponsored by: Microsoft
Defy all challenges. Microsoft(R) Visual Studio 2008.
http://clk.atdmt.com/MRT/go/vse0120000070mrt/direct/01/
_______________________________________________
Gpsbabel-misc mailing list http://www.gpsbabel.org
[hidden email]
To unsubscribe, change list options, or see archives, visit:
https://lists.sourceforge.net/lists/listinfo/gpsbabel-misc
Loading...